Flight Track Log - Related Links

Times and Time Zones

All times are in EDT time to prevent confusion due to time zone crossing. See the AFL150 flight status page for this flight to view local times or setup timezone preferences in your user account.

Time Position Orientation Groundspeed Altitude Reporting Facility
EDT Latitude Longitude Course Direction KTS MPH feet Rate Location/Type
Tue 06:25:49 AM 55.9700 37.4040 255° West 115 132  Level FlightAware ADS-B
Tue 06:26:09 AM 55.9740 37.4310 75° East 174 200 500 2,280 Climbing FlightAware ADS-B
Tue 06:26:39 AM 55.9800 37.4730 76° East 166 191 1,900 2,280 Climbing FlightAware ADS-B
Tue 06:26:59 AM 55.9840 37.4990 75° East 173 199 2,400 1,167 Climbing FlightAware ADS-B
Tue 06:27:15 AM 55.9870 37.5200 76° East 190 219 2,600 1,029 Climbing FlightAware ADS-B
Tue 06:27:34 AM 55.9920 37.5520 74° East 210 242 3,000 1,000 Climbing FlightAware ADS-B
Tue 06:27:45 AM 55.9960 37.5700 68° East 224 258 3,100 900 Climbing FlightAware ADS-B
Tue 06:27:54 AM 56.0040 37.5840 44° Northeast 237 273 3,300 2,000 Climbing FlightAware ADS-B
Tue 06:28:03 AM 56.0140 37.5940 29° Northeast 242 278 3,700 2,400 Climbing FlightAware ADS-B
Tue 06:28:24 AM 56.0360 37.6040 14° North 248 285 4,500 2,341 Climbing FlightAware ADS-B
Tue 06:28:44 AM 56.0580 37.5940 346° North 259 298 5,300 2,500 Climbing FlightAware ADS-B
Tue 06:28:48 AM 56.0630 37.5880 326° Northwest 262 302 5,500 2,400 Climbing FlightAware ADS-B
Tue 06:28:59 AM 56.0720 37.5730 317° Northwest 267 307 5,900 2,250 Climbing FlightAware ADS-B
Tue 06:29:04 AM 56.0760 37.5640 309° West 268 308 6,100 2,667 Climbing FlightAware ADS-B
Tue 06:29:08 AM 56.0780 37.5540 290° West 271 312 6,300 2,400 Climbing FlightAware ADS-B
Tue 06:29:19 AM 56.0810 37.5310 283° West 275 316 6,700 2,323 Climbing FlightAware ADS-B
Tue 06:29:39 AM 56.0830 37.4870 275° West 278 320 7,500 2,571 Climbing FlightAware ADS-B
Tue 06:29:54 AM 56.0840 37.4530 273° West 277 319 8,200 2,800 Climbing FlightAware ADS-B
Tue 06:30:09 AM 56.0860 37.4180 276° West 277 319 8,900 2,550 Climbing FlightAware ADS-B
Tue 06:30:34 AM 56.0890 37.3610 275° West 281 323 9,900 1,800 Climbing FlightAware ADS-B
Tue 06:31:09 AM 56.0930 37.2760 275° West 307 353 10,700 1,183 Climbing FlightAware ADS-B
Tue 06:31:45 AM 56.0970 37.1820 274° West 341 392 11,300 1,200 Climbing FlightAware ADS-B
Tue 06:32:19 AM 56.1010 37.0800 274° West 364 419 12,100 2,261 Climbing FlightAware ADS-B
Tue 06:32:54 AM 56.1060 36.9740 275° West 355 409 13,900 2,829 Climbing FlightAware ADS-B
Tue 06:33:29 AM 56.1100 36.8730 274° West 353 406 15,400 2,400 Climbing FlightAware ADS-B
Tue 06:34:04 AM 56.1130 36.7750 273° West 357 411 16,700 2,143 Climbing FlightAware ADS-B
Tue 06:34:39 AM 56.1180 36.6670 275° West 363 418 17,900 1,971 Climbing FlightAware ADS-B
Tue 06:35:14 AM 56.1210 36.5600 273° West 367 422 19,000 1,886 Climbing FlightAware ADS-B
Tue 06:35:49 AM 56.1250 36.4530 274° West 371 427 20,100 1,800 Climbing FlightAware ADS-B
Tue 06:36:24 AM 56.1290 36.3470 274° West 375 432 21,100 1,800 Climbing FlightAware ADS-B
Tue 06:36:59 AM 56.1330 36.2380 274° West 377 434 22,200 1,800 Climbing FlightAware ADS-B
Tue 06:37:34 AM 56.1370 36.1270 274° West 380 437 23,200 1,543 Climbing FlightAware ADS-B
Tue 06:38:09 AM 56.1400 36.0170 273° West 386 444 24,000 1,286 Climbing FlightAware ADS-B
Tue 06:38:44 AM 56.1440 35.9030 274° West 392 451 24,700 1,286 Climbing FlightAware ADS-B
Tue 06:39:19 AM 56.1480 35.7890 274° West 396 456 25,500 1,371 Climbing FlightAware ADS-B
Tue 06:39:54 AM 56.1510 35.6740 273° West 400 460 26,300 1,286 Climbing FlightAware ADS-B
Tue 06:40:29 AM 56.1540 35.5580 273° West 403 464 27,000 1,200 Climbing FlightAware ADS-B
Tue 06:41:04 AM 56.1580 35.4410 274° West 406 467 27,700 857 Climbing FlightAware ADS-B
Tue 06:41:39 AM 56.1610 35.3230 273° West 410 472 28,000 857 Climbing FlightAware ADS-B
Tue 06:42:14 AM 56.1710 35.2060 279° West 404 465 28,700 857 Climbing FlightAware ADS-B
Tue 06:42:49 AM 56.1830 35.0930 281° West 412 474 29,000 514 Climbing FlightAware ADS-B
Tue 06:43:24 AM 56.1960 34.9710 281° West 422 486 29,300 514 Climbing FlightAware ADS-B
Tue 06:43:59 AM 56.2090 34.8510 281° West 430 495 29,600 514 Climbing FlightAware ADS-B
Tue 06:44:34 AM 56.2220 34.7300 281° West 430 495 29,900 600 Climbing FlightAware ADS-B
Tue 06:45:09 AM 56.2350 34.6050 281° West 432 497 30,300 857 Climbing FlightAware ADS-B
Tue 06:45:44 AM 56.2480 34.4830 281° West 433 498 30,900 1,000 Climbing FlightAware ADS-B
Tue 06:46:21 AM 56.2610 34.3590 281° West 433 498 31,500 857 Climbing FlightAware ADS-B
Tue 06:46:54 AM 56.2740 34.2350 281° West 436 502 31,900 794 Climbing FlightAware ADS-B
Tue 06:47:29 AM 56.2870 34.1080 281° West 439 505 32,400 857 Climbing FlightAware ADS-B
Tue 06:48:04 AM 56.2990 33.9850 280° West 437 503 32,900 771 Climbing FlightAware ADS-B
Tue 06:48:39 AM 56.3110 33.8610 280° West 438 504 33,300 771 Climbing FlightAware ADS-B
Tue 06:49:14 AM 56.3240 33.7360 281° West 440 506 33,800 592 Climbing FlightAware ADS-B
Tue 06:49:50 AM 56.3360 33.6070 280° West 439 505 34,000 171 Climbing FlightAware ADS-B
Tue 06:50:24 AM 56.3480 33.4800 280° West 440 506 34,000  Level FlightAware ADS-B
Tue 06:50:59 AM 56.3600 33.3540 280° West 437 503 34,000  Level FlightAware ADS-B
Tue 06:51:34 AM 56.3720 33.2310 280° West 440 506 34,000  Level FlightAware ADS-B
Tue 06:52:09 AM 56.3840 33.1040 280° West 438 504 34,000  Level FlightAware ADS-B
Tue 06:52:44 AM 56.3950 32.9770 279° West 437 503 34,000  Level FlightAware ADS-B
Tue 06:53:19 AM 56.4060 32.8550 279° West 435 501 34,000  Level FlightAware ADS-B
Tue 06:53:54 AM 56.4180 32.7290 280° West 435 501 34,000  Level FlightAware ADS-B
Tue 06:54:29 AM 56.4290 32.6020 279° West 436 502 34,000  Level FlightAware ADS-B
Tue 06:55:04 AM 56.4400 32.4760 279° West 436 502 34,000  Level FlightAware ADS-B
Tue 06:55:44 AM 56.4520 32.3410 279° West 436 502 34,000  Level FlightAware ADS-B
Tue 06:56:19 AM 56.4620 32.2150 278° West 437 503 34,000  Level FlightAware ADS-B
Tue 06:56:55 AM 56.4720 32.0900 278° West 436 502 34,000  Level FlightAware ADS-B
Tue 06:57:31 AM 56.4810 31.9790 278° West 436 502 34,000  Level FlightAware ADS-B
Tue 06:58:07 AM 56.4890 31.8680 277° West 436 502 34,000  Level FlightAware ADS-B
Tue 06:58:43 AM 56.4980 31.7580 278° West 436 502 34,000  Level FlightAware ADS-B
Tue 06:59:19 AM 56.5070 31.6470 278° West 436 502 34,000  Level FlightAware ADS-B
Tue 06:59:56 AM 56.5150 31.5330 277° West 436 502 34,000  Level FlightAware ADS-B
Tue 07:00:01 AM 56.4380 32.4930 98° East 34,000  Level FlightAware ADS-B
Tue 07:00:22 AM 56.5320 31.3590 279° West 431 496 34,000  Level FlightAware ADS-B
Tue 07:01:01 AM 56.5480 31.2140 281° West 426 490 34,000  Level FlightAware ADS-B
Tue 07:01:36 AM 56.4190 32.7080 98° East 34,000  Level FlightAware ADS-B
Tue 07:02:11 AM 56.5480 31.2140 280° West 423 487 34,000  Level FlightAware ADS-B
Tue 07:02:35 AM 56.6320 30.9030 296° West 423 487 34,000  Level FlightAware ADS-B
Tue 07:03:05 AM 56.6690 30.8210 309° West 421 484 34,000  Level FlightAware ADS-B
Tue 07:03:40 AM 56.7120 30.7300 311° West 421 484 34,000  Level FlightAware ADS-B
Tue 07:04:20 AM 56.7550 30.6190 305° West 423 487 34,000  Level FlightAware ADS-B
Tue 07:04:51 AM 56.7910 30.5250 305° West 423 487 34,000  Level FlightAware ADS-B
Tue 07:05:25 AM 56.8240 30.4350 304° West 422 486 34,000  Level FlightAware ADS-B
Tue 07:06:00 AM 56.8670 30.3200 304° West 419 482 34,000  Level FlightAware ADS-B
Tue 07:06:40 AM 56.9090 30.2050 304° West 417 480 34,000  Level FlightAware ADS-B
Tue 07:07:15 AM 56.9470 30.1020 304° West 415 478 34,000  Level FlightAware ADS-B
Tue 07:07:46 AM 56.9800 30.0110 304° West 413 475 34,000  Level FlightAware ADS-B
Tue 07:08:20 AM 57.0140 29.9160 303° West 412 474 34,000  Level FlightAware ADS-B
Tue 07:09:00 AM 57.0560 29.8020 304° West 411 473 34,000  Level FlightAware ADS-B
Tue 07:09:35 AM 57.0950 29.6930 303° West 411 473 34,000  Level FlightAware ADS-B
Tue 07:10:11 AM 57.1310 29.5920 303° West 409 471 34,000  Level FlightAware ADS-B
Tue 07:10:40 AM 57.1590 29.5150 304° West 407 468 34,000  Level FlightAware ADS-B
Tue 07:11:15 AM 57.1970 29.4070 303° West 402 463 34,000  Level FlightAware ADS-B
Tue 07:11:55 AM 57.2390 29.2890 303° West 400 460 34,000  Level FlightAware ADS-B
Tue 07:12:25 AM 57.2680 29.2060 303° West 397 457 34,000  Level FlightAware ADS-B
Tue 07:13:00 AM 57.2990 29.1170 303° West 396 456 34,000  Level FlightAware ADS-B
Tue 07:13:40 AM 57.3410 28.9980 303° West 394 453 34,000  Level FlightAware ADS-B
Tue 07:14:15 AM 57.3770 28.8950 303° West 392 451 34,000  Level FlightAware ADS-B
Tue 07:14:45 AM 57.4070 28.8100 303° West 392 451 34,000  Level FlightAware ADS-B
Tue 07:15:20 AM 57.4390 28.7150 302° West 391 450 34,000  Level FlightAware ADS-B
Tue 07:16:00 AM 57.4790 28.6010 303° West 389 448 34,000  Level FlightAware ADS-B
Tue 07:16:30 AM 57.5070 28.5180 302° West 389 448 34,000  Level FlightAware ADS-B
Tue 07:17:05 AM 57.5410 28.4190 303° West 386 444 34,000  Level FlightAware ADS-B
Tue 07:17:45 AM 57.5790 28.3060 302° West 382 440 34,000  Level FlightAware ADS-B
Tue 07:18:15 AM 57.6070 28.2250 303° West 378 435 34,000  Level FlightAware ADS-B
Tue 07:18:50 AM 57.6390 28.1300 302° West 375 432 34,000  Level FlightAware ADS-B
Tue 07:19:30 AM 57.6750 28.0220 302° West 372 428 34,000  Level FlightAware ADS-B
Tue 07:20:06 AM 57.7080 27.9260 303° West 371 427 34,000  Level FlightAware ADS-B
Tue 07:20:36 AM 57.7360 27.8410 302° West 371 427 34,000  Level FlightAware ADS-B
Tue 07:21:15 AM 57.7690 27.7430 302° West 370 426 34,000  Level FlightAware ADS-B
Tue 07:21:45 AM 57.7980 27.6530 301° West 371 427 34,000  Level FlightAware ADS-B
Tue 07:22:20 AM 57.8290 27.5600 302° West 373 429 34,000  Level FlightAware ADS-B
Tue 07:23:00 AM 57.8560 27.4360 292° West 384 442 34,000  Level FlightAware ADS-B
Tue 07:23:35 AM 57.8790 27.3230 291° West 385 443 34,000  Level FlightAware ADS-B
Tue 07:24:05 AM 57.8950 27.2420 290° West 387 445 34,000  Level FlightAware ADS-B
Tue 07:24:41 AM 57.9190 27.1250 291° West 389 448 34,000  Level FlightAware ADS-B
Tue 07:25:20 AM 57.9430 27.0050 291° West 392 451 34,000  Level FlightAware ADS-B
Tue 07:25:50 AM 57.9630 26.9040 291° West 393 452 34,000  Level FlightAware ADS-B
Tue 07:26:25 AM 57.9840 26.7960 290° West 394 453 34,000  Level FlightAware ADS-B
Tue 07:27:04 AM 58.0120 26.6580 291° West 394 453 34,000  Level FlightAware ADS-B
Tue 07:27:41 AM 58.0340 26.5430 290° West 391 450 34,000  Level FlightAware ADS-B
Tue 07:28:11 AM 58.0530 26.4440 290° West 389 448 34,000  Level FlightAware ADS-B
Tue 07:28:48 AM 58.0760 26.3250 290° West 389 448 34,000  Level FlightAware ADS-B
Tue 07:29:25 AM 58.0990 26.2080 290° West 389 448 34,000  Level FlightAware ADS-B
Tue 07:29:59 AM 58.1200 26.0990 290° West 388 447 34,000  Level FlightAware ADS-B
Tue 07:30:31 AM 58.1390 25.9970 289° West 387 445 34,000  Level FlightAware ADS-B
Tue 07:31:09 AM 58.1620 25.8790 290° West 386 444 34,000  Level FlightAware ADS-B
Tue 07:31:46 AM 58.1830 25.7640 289° West 386 444 34,000  Level FlightAware ADS-B
Tue 07:32:18 AM 58.2020 25.6620 290° West 387 445 34,000  Level FlightAware ADS-B
Tue 07:32:53 AM 58.2240 25.5460 290° West 386 444 34,000  Level FlightAware ADS-B
Tue 07:33:30 AM 58.2450 25.4320 289° West 386 444 34,000  Level FlightAware ADS-B
Tue 07:34:02 AM 58.2640 25.3320 290° West 384 442 34,000  Level FlightAware ADS-B
Tue 07:34:39 AM 58.2850 25.2140 289° West 382 440 34,000  Level FlightAware ADS-B
Tue 07:35:11 AM 58.3040 25.1120 290° West 382 440 34,000  Level FlightAware ADS-B
Tue 07:35:48 AM 58.3250 24.9930 289° West 383 441 34,000  Level FlightAware ADS-B
Tue 07:36:21 AM 58.3440 24.8870 289° West 384 442 34,000  Level FlightAware ADS-B
Tue 07:36:59 AM 58.3650 24.7730 289° West 384 442 34,000  Level FlightAware ADS-B
Tue 07:37:34 AM 58.3860 24.6550 289° West 382 440 34,000  Level FlightAware ADS-B
Tue 07:38:10 AM 58.4060 24.5400 288° West 381 438 34,000  Level FlightAware ADS-B
Tue 07:38:43 AM 58.4240 24.4330 288° West 382 440 34,000  Level FlightAware ADS-B
Tue 07:39:18 AM 58.4410 24.3250 287° West 384 442 34,000  Level FlightAware ADS-B
Tue 07:39:55 AM 58.4590 24.2010 286° West 384 442 34,000  Level FlightAware ADS-B
Tue 07:40:30 AM 58.4760 24.0860 286° West 384 442 34,000  Level FlightAware ADS-B
Tue 07:41:02 AM 58.4920 23.9850 287° West 385 443 34,000  Level FlightAware ADS-B
Tue 07:41:39 AM 58.5090 23.8660 285° West 386 444 34,000  Level FlightAware ADS-B
Tue 07:42:14 AM 58.5260 23.7510 286° West 385 443 34,000  Level FlightAware ADS-B
Tue 07:42:47 AM 58.5420 23.6440 286° West 386 444 34,000  Level FlightAware ADS-B
Tue 07:43:22 AM 58.5590 23.5240 285° West 387 445 34,000  Level FlightAware ADS-B
Tue 07:43:59 AM 58.5760 23.4060 285° West 386 444 34,000  Level FlightAware ADS-B
Tue 07:44:35 AM 58.5940 23.2840 286° West 386 444 34,000  Level FlightAware ADS-B
Tue 07:45:10 AM 58.6100 23.1690 285° West 388 447 34,000  Level FlightAware ADS-B
Tue 07:45:43 AM 58.6250 23.0630 285° West 388 447 34,000  Level FlightAware ADS-B
Tue 07:46:19 AM 58.6430 22.9380 286° West 389 448 34,000  Level FlightAware ADS-B
Tue 07:46:52 AM 58.6580 22.8320 285° West 390 449 34,000  Level FlightAware ADS-B
Tue 07:47:27 AM 58.6740 22.7160 285° West 391 450 34,000  Level FlightAware ADS-B
Tue 07:48:04 AM 58.6910 22.5890 284° West 390 449 34,000  Level FlightAware ADS-B
Tue 07:48:41 AM 58.7090 22.4630 285° West 391 450 34,000  Level FlightAware ADS-B
Tue 07:49:13 AM 58.7230 22.3560 284° West 392 451 34,000  Level FlightAware ADS-B
Tue 07:49:50 AM 58.7390 22.2340 284° West 393 452 34,000  Level FlightAware ADS-B
Tue 07:50:24 AM 58.7560 22.1120 285° West 395 455 34,000  Level FlightAware ADS-B
Tue 07:50:57 AM 58.7700 22.0030 284° West 394 453 34,000  Level FlightAware ADS-B
Tue 07:51:34 AM 58.7850 21.8870 284° West 392 451 34,000  Level FlightAware ADS-B
Tue 07:52:09 AM 58.8020 21.7600 285° West 393 452 34,000  Level FlightAware ADS-B
Tue 07:52:46 AM 58.8180 21.6360 284° West 394 453 34,000  Level FlightAware ADS-B
Tue 07:53:25 AM 58.8350 21.5020 284° West 396 456 34,000  Level FlightAware ADS-B
Tue 07:53:59 AM 58.8500 21.3850 284° West 396 456 34,000  Level FlightAware ADS-B
Tue 07:54:38 AM 58.8730 21.2540 289° West 395 455 34,000  Level FlightAware ADS-B
Tue 07:55:10 AM 58.8910 21.1480 288° West 397 457 34,000  Level FlightAware ADS-B
Tue 07:55:45 AM 58.9110 21.0300 288° West 396 456 34,000  Level FlightAware ADS-B
Tue 07:56:22 AM 58.9320 20.9040 288° West 394 453 34,000  Level FlightAware ADS-B
Tue 07:56:53 AM 58.9490 20.8030 288° West 393 452 34,000  Level FlightAware ADS-B
Tue 07:57:29 AM 58.9680 20.6840 287° West 392 451 34,000  Level FlightAware ADS-B
Tue 07:58:07 AM 58.9890 20.5580 288° West 389 448 34,000  Level FlightAware ADS-B
Tue 07:58:43 AM 59.0080 20.4370 287° West 389 448 34,000  Level FlightAware ADS-B
Tue 07:59:15 AM 59.0260 20.3290 288° West 389 448 34,000  Level FlightAware ADS-B
Tue 07:59:51 AM 59.0440 20.2150 287° West 390 449 34,000  Level FlightAware ADS-B
Tue 08:00:30 AM 59.0654 20.0769 287° West 390 449 34,000  Level FlightAware ADS-B
Tue 08:01:10 AM 59.0863 19.9435 287° West 390 449 34,000  Level FlightAware ADS-B
Tue 08:01:54 AM 59.1093 19.7958 287° West 390 449 34,000  Level FlightAware ADS-B
Tue 08:02:25 AM 59.1251 19.6931 287° West 390 449 34,000  Level FlightAware ADS-B
Tue 08:03:02 AM 59.1444 19.5673 287° West 390 449 34,000  Level FlightAware ADS-B
Tue 08:03:53 AM 59.1701 19.3976 287° West 388 447 34,000  Level FlightAware ADS-B
Tue 08:04:30 AM 59.1888 19.2734 286° West 387 445 34,000  Level FlightAware ADS-B
Tue 08:05:00 AM 59.2040 19.1716 286° West 387 445 34,000  Level FlightAware ADS-B
Tue 08:05:30 AM 59.2190 19.0705 286° West 387 445 34,000  Level FlightAware ADS-B
Tue 08:06:10 AM 59.2388 18.9363 286° West 386 444 34,000  Level FlightAware ADS-B
Tue 08:06:49 AM 59.2582 18.8039 286° West 386 444 34,000  Level FlightAware ADS-B
Tue 08:07:20 AM 59.2732 18.7009 286° West 384 442 34,000  Level FlightAware ADS-B
Tue 08:07:50 AM 59.2875 18.6015 286° West 383 441 34,000  Level FlightAware ADS-B
Tue 08:08:21 AM 59.3026 18.4960 286° West 383 441 34,000  Level FlightAware ADS-B
Tue 08:09:02 AM 59.3217 18.3621 286° West 384 442 34,000  Level FlightAware ADS-B
Tue 08:09:41 AM 59.3405 18.2292 286° West 383 441 34,000  Level FlightAware ADS-B
Tue 08:10:11 AM 59.3542 18.1312 285° West 383 441 34,000  Level FlightAware ADS-B
Tue 08:10:41 AM 59.3680 18.0324 285° West 383 441 34,000  Level FlightAware ADS-B
Tue 08:11:12 AM 59.3824 17.9283 285° West 383 441 34,000  Level FlightAware ADS-B
Tue 08:11:51 AM 59.4002 17.7982 285° West 384 442 34,000  Level FlightAware ADS-B
Tue 08:12:21 AM 59.4142 17.6959 285° West 385 443 34,000  Level FlightAware ADS-B
Tue 08:13:01 AM 59.4325 17.5601 285° West 386 444 34,000  Level FlightAware ADS-B
Tue 08:13:31 AM 59.4459 17.4600 285° West 386 444 34,000  Level FlightAware ADS-B
Tue 08:14:11 AM 59.4640 17.3247 285° West 385 443 34,000  Level FlightAware ADS-B
Tue 08:14:41 AM 59.4775 17.2222 285° West 385 443 34,000  Level FlightAware ADS-B
Tue 08:15:11 AM 59.4906 17.1226 285° West 385 443 34,000  Level FlightAware ADS-B
Tue 08:15:41 AM 59.5041 17.0194 284° West 386 444 34,000  Level FlightAware ADS-B
Tue 08:16:12 AM 59.5174 16.9164 284° West 387 445 34,000  Level FlightAware ADS-B
Tue 08:16:51 AM 59.5348 16.7812 284° West 388 447 34,000  Level FlightAware ADS-B
Tue 08:17:21 AM 59.5478 16.6793 284° West 386 444 34,000  Level FlightAware ADS-B
Tue 08:17:51 AM 59.5607 16.5771 284° West 387 445 34,000  Level FlightAware ADS-B
Tue 08:18:21 AM 59.5738 16.4735 284° West 386 444 34,000  Level FlightAware ADS-B
Tue 08:18:52 AM 59.5869 16.3685 284° West 385 443 34,000  Level FlightAware ADS-B
Tue 08:19:22 AM 59.5996 16.2656 284° West 385 443 34,000  Level FlightAware ADS-B
Tue 08:19:53 AM 59.6125 16.1606 284° West 385 443 34,000  Level FlightAware ADS-B
Tue 08:20:32 AM 59.6291 16.0265 284° West 384 442 34,000  Level FlightAware ADS-B
Tue 08:21:03 AM 59.6417 15.9214 283° West 385 443 34,000  Level FlightAware ADS-B
Tue 08:21:42 AM 59.6578 15.7869 283° West 385 443 34,000  Level FlightAware ADS-B
Tue 08:22:12 AM 59.6699 15.6844 283° West 385 443 34,000  Level FlightAware ADS-B
Tue 08:22:42 AM 59.6822 15.5810 283° West 385 443 34,000  Level FlightAware ADS-B
Tue 08:23:24 AM 59.6990 15.4360 283° West 387 445 34,000  Level FlightAware ADS-B
Tue 08:24:00 AM 59.7120 15.3240 283° West 387 445 34,000  Level FlightAware ADS-B
Tue 08:24:36 AM 59.7280 15.1880 283° West 388 447 34,000  Level FlightAware ADS-B
Tue 08:25:10 AM 59.7410 15.0700 282° West 389 448 34,000  Level FlightAware ADS-B
Tue 08:25:46 AM 59.7550 14.9530 283° West 390 449 34,000  Level FlightAware ADS-B
Tue 08:26:17 AM 59.7670 14.8410 282° West 391 450 34,000  Level FlightAware ADS-B
Tue 08:26:51 AM 59.7810 14.7190 283° West 392 451 34,000  Level FlightAware ADS-B
Tue 08:27:25 AM 59.7930 14.6020 282° West 390 449 34,000  Level FlightAware ADS-B
Tue 08:28:03 AM 59.8080 14.4670 283° West 390 449 34,000  Level FlightAware ADS-B
Tue 08:28:36 AM 59.8190 14.3650 282° West 391 450 34,000  Level FlightAware ADS-B
Tue 08:29:15 AM 59.8350 14.2160 282° West 389 448 34,000  Level FlightAware ADS-B
Tue 08:29:50 AM 59.8480 14.0980 282° West 389 448 34,000  Level FlightAware ADS-B
Tue 08:30:22 AM 59.8600 13.9830 282° West 390 449 34,000  Level FlightAware ADS-B
Tue 08:30:59 AM 59.8730 13.8550 281° West 391 450 34,000  Level FlightAware ADS-B
Tue 08:31:33 AM 59.8900 13.7350 286° West 392 451 34,000  Level FlightAware ADS-B
Tue 08:32:09 AM 59.9070 13.6240 287° West 392 451 34,000  Level FlightAware ADS-B
Tue 08:32:45 AM 59.9280 13.4860 287° West 393 452 34,000  Level FlightAware ADS-B
Tue 08:33:18 AM 59.9450 13.3750 287° West 395 455 34,000  Level FlightAware ADS-B
Tue 08:33:55 AM 59.9650 13.2470 287° West 396 456 34,000  Level FlightAware ADS-B
Tue 08:34:27 AM 59.9810 13.1330 286° West 396 456 34,000  Level FlightAware ADS-B
Tue 08:35:01 AM 59.9990 13.0130 287° West 396 456 34,000  Level FlightAware ADS-B
Tue 08:35:38 AM 60.0180 12.8840 286° West 395 455 34,000  Level FlightAware ADS-B
Tue 08:36:13 AM 60.0360 12.7610 286° West 398 458 34,000  Level FlightAware ADS-B
Tue 08:36:49 AM 60.0540 12.6370 286° West 398 458 34,000  Level FlightAware ADS-B
Tue 08:37:26 AM 60.0740 12.5000 286° West 398 458 34,000  Level FlightAware ADS-B
Tue 08:37:57 AM 60.0880 12.3960 285° West 397 457 34,000 353 Level FlightAware ADS-B
Tue 08:38:34 AM 60.1070 12.2630 286° West 400 460 34,400 973 Climbing FlightAware ADS-B
Tue 08:39:11 AM 60.1250 12.1350 286° West 393 452 35,200 1,130 Climbing FlightAware ADS-B
Tue 08:39:43 AM 60.1410 12.0220 286° West 391 450 35,700 696 Climbing FlightAware ADS-B
Tue 08:40:20 AM 60.1590 11.8890 285° West 392 451 36,000 257 Climbing FlightAware ADS-B
Tue 08:40:53 AM 60.1750 11.7760 286° West 396 456 36,000  Level FlightAware ADS-B
Tue 08:41:29 AM 60.1920 11.6510 285° West 397 457 36,000  Level FlightAware ADS-B
Tue 08:42:05 AM 60.2090 11.5220 285° West 396 456 36,000  Level FlightAware ADS-B
Tue 08:42:36 AM 60.2240 11.4090 285° West 395 455 36,000  Level FlightAware ADS-B
Tue 08:43:16 AM 60.2420 11.2710 285° West 393 452 36,000  Level FlightAware ADS-B
Tue 08:43:48 AM 60.2580 11.1530 285° West 392 451 36,000  Level FlightAware ADS-B
Tue 08:44:20 AM 60.2730 11.0410 285° West 391 450 36,000  Level FlightAware ADS-B
Tue 08:44:57 AM 60.2890 10.9150 284° West 391 450 36,000  Level FlightAware ADS-B
Tue 08:45:36 AM 60.3060 10.7800 284° West 391 450 36,000  Level FlightAware ADS-B
Tue 08:46:06 AM 60.3200 10.6760 285° West 391 450 36,000  Level FlightAware ADS-B
Tue 08:46:43 AM 60.3360 10.5420 284° West 390 449 36,000  Level FlightAware ADS-B
Tue 08:47:20 AM 60.3530 10.4130 285° West 392 451 36,000  Level FlightAware ADS-B
Tue 08:47:55 AM 60.3680 10.2870 284° West 393 452 36,000  Level FlightAware ADS-B
Tue 08:48:28 AM 60.3820 10.1730 284° West 393 452 36,000  Level FlightAware ADS-B
Tue 08:49:04 AM 60.3990 10.0360 284° West 395 455 36,000  Level FlightAware ADS-B
Tue 08:49:37 AM 60.4130 9.9210 284° West 395 455 36,000  Level FlightAware ADS-B
Tue 08:50:13 AM 60.4270 9.8040 284° West 394 453 36,000  Level FlightAware ADS-B
Tue 08:50:49 AM 60.4440 9.6650 284° West 393 452 36,000  Level FlightAware ADS-B
Tue 08:51:25 AM 60.4590 9.5340 283° West 394 453 36,000  Level FlightAware ADS-B
Tue 08:51:57 AM 60.4710 9.4280 283° West 394 453 36,000  Level FlightAware ADS-B
Tue 08:52:33 AM 60.4870 9.2910 283° West 395 455 36,000  Level FlightAware ADS-B
Tue 08:53:06 AM 60.5000 9.1810 284° West 396 456 36,000  Level FlightAware ADS-B
Tue 08:53:44 AM 60.5170 9.0350 283° West 397 457 36,000  Level FlightAware ADS-B
Tue 08:54:17 AM 60.5300 8.9160 283° West 397 457 36,000  Level FlightAware ADS-B
Tue 08:54:54 AM 60.5450 8.7810 283° West 397 457 36,000  Level FlightAware ADS-B
Tue 08:55:31 AM 60.5600 8.6470 283° West 398 458 36,000  Level FlightAware ADS-B
Tue 08:56:03 AM 60.5720 8.5340 282° West 398 458 36,000  Level FlightAware ADS-B
Tue 08:56:40 AM 60.5870 8.3950 282° West 397 457 36,000  Level FlightAware ADS-B
Tue 08:57:15 AM 60.6010 8.2680 283° West 398 458 36,000  Level FlightAware ADS-B
Tue 08:57:50 AM 60.6140 8.1440 282° West 399 459 36,000  Level FlightAware ADS-B
Tue 08:58:24 AM 60.6270 8.0180 282° West 399 459 36,000  Level FlightAware ADS-B
Tue 08:58:57 AM 60.6400 7.9000 283° West 400 460 36,000  Level FlightAware ADS-B
Tue 08:59:35 AM 60.6550 7.7530 282° West 400 460 36,000  Level FlightAware ADS-B
Tue 08:59:46 AM 60.6587 7.7162 282° West 400 460 36,000  Level FlightAware ADS-B
Tue 09:00:18 AM 60.6710 7.5956 282° West 400 460 36,000  Level FlightAware ADS-B
Tue 09:00:55 AM 60.6850 7.4573 282° West 400 460 36,000  Level FlightAware ADS-B
Tue 09:01:27 AM 60.6968 7.3387 282° West 399 459 36,000  Level FlightAware ADS-B
Tue 09:01:57 AM 60.7075 7.2316 282° West 400 460 36,000  Level FlightAware ADS-B
Tue 09:02:27 AM 60.7190 7.1190 282° West 399 459 36,000  Level FlightAware ADS-B
Tue 09:02:38 AM 60.7225 7.0790 280° West 399 459 36,000  Level FlightAware ADS-B
Tue 09:03:08 AM 60.7329 6.9689 281° West 399 459 36,000  Level FlightAware ADS-B
Tue 09:03:38 AM 60.7430 6.8580 281° West 400 460 36,000  Level FlightAware ADS-B
Tue 09:03:47 AM 60.7468 6.8231 283° West 400 460 36,000  Level FlightAware ADS-B
Tue 09:04:27 AM 60.7609 6.6752 281° West 401 461 36,000  Level FlightAware ADS-B
Tue 09:04:57 AM 60.7712 6.5651 281° West 401 461 36,000  Level FlightAware ADS-B
Tue 09:05:27 AM 60.7818 6.4510 281° West 401 461 36,000  Level FlightAware ADS-B
Tue 09:05:59 AM 60.7920 6.3430 281° West 400 460 36,000  Level FlightAware ADS-B
Tue 09:06:07 AM 60.7953 6.3037 280° West 400 460 36,000  Level FlightAware ADS-B
Tue 09:06:37 AM 60.8055 6.1913 281° West 399 459 36,000  Level FlightAware ADS-B
Tue 09:07:11 AM 60.8160 6.0720 280° West 398 458 36,000  Level FlightAware ADS-B
Tue 09:07:15 AM 60.8181 6.0516 282° West 398 458 36,000  Level FlightAware ADS-B
Tue 09:07:45 AM 60.8279 5.9406 280° West 397 457 36,000  Level FlightAware ADS-B
Tue 09:08:17 AM 60.8383 5.8232 280° West 397 457 36,000  Level FlightAware ADS-B
Tue 09:08:48 AM 60.8481 5.7099 280° West 395 455 36,000  Level FlightAware ADS-B
Tue 09:09:27 AM 60.8600 5.5750 280° West 395 455 36,000  Level FlightAware ADS-B
Tue 09:10:02 AM 60.8710 5.4410 280° West 396 456 36,000  Level FlightAware ADS-B
Tue 09:10:38 AM 60.8820 5.3050 279° West 396 456 36,000  Level FlightAware ADS-B
Tue 09:11:27 AM 60.8940 5.1580 280° West 397 457 36,000  Level FlightAware ADS-B
Tue 09:11:57 AM 60.9060 5.0150 280° West 398 458 36,000  Level FlightAware ADS-B
Tue 09:12:58 AM 60.9250 4.7820 280° West 400 460 36,000  Level FlightAware ADS-B
Tue 09:13:36 AM 60.9360 4.6430 279° West 401 461 36,000  Level FlightAware ADS-B
Tue 09:14:06 AM 60.9440 4.5310 278° West 401 461 36,000  Level FlightAware ADS-B
Tue 09:14:45 AM 60.9560 4.3820 279° West 402 463 36,000  Level FlightAware ADS-B
Tue 09:15:18 AM 60.9650 4.2600 279° West 403 464 36,000  Level FlightAware ADS-B
Tue 09:15:53 AM 60.9750 4.1280 279° West 403 464 36,000  Level FlightAware ADS-B
Tue 09:16:29 AM 60.9850 3.9880 278° West 402 463 36,000  Level FlightAware ADS-B
Tue 09:17:04 AM 60.9940 3.8590 278° West 401 461 36,000  Level FlightAware ADS-B
Tue 09:17:36 AM 61.0030 3.7370 279° West 400 460 36,000  Level FlightAware ADS-B
Tue 09:18:10 AM 61.0120 3.6110 278° West 401 461 36,000  Level FlightAware ADS-B
Tue 09:18:49 AM 61.0230 3.4580 279° West 401 461 36,000  Level FlightAware ADS-B
Tue 09:19:25 AM 61.0310 3.3270 277° West 402 463 36,000  Level FlightAware ADS-B
Tue 09:19:57 AM 61.0400 3.2050 279° West 402 463 36,000  Level FlightAware ADS-B
Tue 09:20:31 AM 61.0480 3.0720 277° West 402 463 36,000 167 Level FlightAware ADS-B
Tue 09:21:09 AM 61.0580 2.9320 278° West 405 466 36,200 568 Climbing FlightAware ADS-B
Tue 09:21:45 AM 61.0660 2.7990 277° West 405 466 36,700 435 Climbing FlightAware ADS-B
Tue 09:22:18 AM 61.0740 2.6680 277° West 412 474 36,700 257 Level FlightAware ADS-B
Tue 09:22:55 AM 61.0830 2.5200 277° West 417 480 37,000 250 Climbing FlightAware ADS-B
Tue 09:23:30 AM 61.0920 2.3800 278° West 423 487 37,000  Level FlightAware ADS-B
Tue 09:24:04 AM 61.1000 2.2490 277° West 423 487 37,000  Level FlightAware ADS-B
Tue 09:24:40 AM 61.1090 2.1010 277° West 424 488 37,000  Level FlightAware ADS-B
Tue 09:25:12 AM 61.1160 1.9720 276° West 422 486 37,000  Level FlightAware ADS-B
Tue 09:25:48 AM 61.1240 1.8330 277° West 421 484 37,000  Level FlightAware ADS-B
Tue 09:26:24 AM 61.1320 1.6890 277° West 420 483 37,000  Level FlightAware ADS-B
Tue 09:26:58 AM 61.1400 1.5470 277° West 421 484 37,000  Level FlightAware ADS-B
Tue 09:27:36 AM 61.1480 1.3960 276° West 422 486 37,000  Level FlightAware ADS-B
Tue 09:28:05 AM 61.1540 1.2830 276° West 422 486 37,000  Level FlightAware ADS-B
Tue 09:28:41 AM 61.1610 1.1360 276° West 422 486 37,000  Level FlightAware ADS-B
Tue 09:29:19 AM 61.1690 0.9860 276° West 424 488 37,000  Level FlightAware ADS-B
Tue 09:29:51 AM 61.1750 0.8550 275° West 424 488 37,000  Level FlightAware ADS-B
Tue 09:30:27 AM 61.1820 0.7130 276° West 425 489 37,000  Level FlightAware ADS-B
Tue 09:31:04 AM 61.1900 0.5610 276° West 422 486 37,000  Level FlightAware ADS-B
Tue 09:31:39 AM 61.1960 0.4200 275° West 422 486 37,000  Level FlightAware ADS-B
Tue 09:32:12 AM 61.2020 0.2880 275° West 421 484 37,000  Level FlightAware ADS-B
Tue 09:32:48 AM 61.2090 0.1460 276° West 424 488 37,000  Level FlightAware ADS-B
Tue 09:33:24 AM 61.2230 -0.0020 281° West 432 497 37,000  Level FlightAware ADS-B
Tue 09:33:59 AM 61.2450 -0.1380 289° West 441 507 37,000  Level FlightAware ADS-B
Tue 09:34:32 AM 61.2740 -0.2670 295° West 447 514 37,000  Level FlightAware ADS-B
Tue 09:35:06 AM 61.3040 -0.3990 295° West 450 518 37,000  Level FlightAware ADS-B
Tue 09:35:43 AM 61.3360 -0.5420 295° West 451 519 37,000  Level FlightAware ADS-B
Tue 09:36:25 AM 61.3730 -0.7070 295° West 452 520 37,000  Level FlightAware ADS-B
Tue 09:37:01 AM 61.4050 -0.8520 295° West 454 522 37,000  Level FlightAware ADS-B
Tue 09:37:38 AM 61.4360 -0.9960 294° West 453 521 37,000  Level FlightAware ADS-B
Tue 09:38:08 AM 61.4630 -1.1190 295° West 452 520 37,000  Level FlightAware ADS-B
Tue 09:38:45 AM 61.4940 -1.2680 294° West 454 522 37,000  Level FlightAware ADS-B
Tue 09:39:22 AM 61.5250 -1.4130 294° West 458 527 37,000  Level FlightAware ADS-B
Tue 09:40:01 AM 61.5590 -1.5720 294° West 459 528 37,000  Level FlightAware ADS-B
Tue 09:40:37 AM 61.5900 -1.7190 294° West 458 527 37,000  Level FlightAware ADS-B
Tue 09:41:14 AM 61.6210 -1.8690 294° West 458 527 37,000  Level FlightAware ADS-B
Tue 09:41:45 AM 61.6470 -1.9950 294° West 457 526 37,000  Level FlightAware ADS-B
Tue 09:42:22 AM 61.6760 -2.1340 294° West 458 527 37,000  Level FlightAware ADS-B
Tue 09:42:59 AM 61.7100 -2.2990 294° West 457 526 37,000  Level FlightAware ADS-B
Tue 09:43:32 AM 61.7360 -2.4290 293° West 457 526 37,000  Level FlightAware ADS-B
Tue 09:44:07 AM 61.7650 -2.5710 293° West 456 525 37,000  Level FlightAware ADS-B
Tue 09:44:43 AM 61.7950 -2.7250 292° West 455 524 37,000  Level FlightAware ADS-B
Tue 09:45:08 AM 61.8150 -2.8240 293° West 455 524 37,000  Level FlightAware ADS-B
Tue 09:45:43 AM 61.8430 -2.9650 293° West 455 524 37,000  Level FlightAware ADS-B
Tue 09:46:21 AM 61.8680 -3.0910 293° West 457 526 37,000  Level FlightAware ADS-B
Tue 09:46:58 AM 61.9030 -3.2720 292° West 455 524 37,000  Level FlightAware ADS-B
Tue 09:47:29 AM 61.9240 -3.3800 292° West 460 529 37,000  Level FlightAware ADS-B
Tue 09:48:05 AM 61.9570 -3.5520 292° West 462 532 37,000  Level FlightAware ADS-B
Tue 09:48:41 AM 61.9850 -3.7010 292° West 463 533 37,000  Level FlightAware ADS-B
Tue 09:49:14 AM 62.0110 -3.8370 292° West 462 532 37,000  Level FlightAware ADS-B
Tue 09:49:55 AM 62.0440 -4.0120 292° West 463 533 37,000  Level FlightAware ADS-B
Tue 09:50:29 AM 62.0700 -4.1520 292° West 463 533 37,000  Level FlightAware ADS-B
Tue 09:51:20 AM 62.1080 -4.3630 291° West 462 532 37,000  Level FlightAware ADS-B
Tue 09:51:56 AM 62.1300 -4.4950 290° West 462 532 37,000  Level FlightAware ADS-B
Tue 09:52:33 AM 62.1530 -4.6300 290° West 462 532 37,000  Level FlightAware ADS-B
Tue 09:53:09 AM 62.1750 -4.7610 290° West 462 532 37,000  Level FlightAware ADS-B
Tue 09:53:45 AM 62.1980 -4.8930 291° West 462 532 37,000  Level FlightAware ADS-B
Tue 09:54:23 AM 62.2210 -5.0320 290° West 462 532 37,000  Level FlightAware ADS-B
Tue 09:54:59 AM 62.2440 -5.1640 291° West 462 532 37,000  Level FlightAware ADS-B
Tue 09:55:35 AM 62.2660 -5.2960 290° West 462 532 37,000  Level FlightAware ADS-B
Tue 09:56:10 AM 62.3340 -5.6280 294° West 470 541 37,000  Level FlightAware ADS-B
Tue 09:56:43 AM 62.3600 -5.7800 290° West 471 542 37,000  Level FlightAware ADS-B
Tue 09:57:19 AM 62.3810 -5.9070 290° West 471 542 37,000  Level FlightAware ADS-B
Tue 09:57:55 AM 62.4040 -6.0420 290° West 471 542 37,000  Level FlightAware ADS-B
Tue 09:58:30 AM 62.4380 -6.2460 290° West 467 537 37,000  Level FlightAware ADS-B
Tue 09:59:24 AM 62.4730 -6.4570 290° West 463 533 37,000  Level FlightAware ADS-B
Tue 10:00:01 AM 62.4940 -6.5960 288° West 463 533 37,000  Level FlightAware ADS-B
Tue 10:00:42 AM 62.5330 -6.8230 291° West 463 533 37,000  Level FlightAware ADS-B
Tue 10:01:12 AM 62.5500 -6.9330 289° West 461 531 37,000  Level FlightAware ADS-B
Tue 10:02:04 AM 62.5890 -7.1790 289° West 464 534 37,000  Level FlightAware ADS-B
Tue 10:02:43 AM 62.6160 -7.3480 289° West 465 535 37,000  Level FlightAware ADS-B
Tue 10:03:14 AM 62.6360 -7.4770 289° West 468 539 37,000  Level FlightAware ADS-B
Tue 10:03:50 AM 62.6600 -7.6310 289° West 467 537 37,000  Level FlightAware ADS-B
Tue 10:04:28 AM 62.6810 -7.7750 288° West 467 537 37,000  Level FlightAware ADS-B
Tue 10:05:04 AM 62.7020 -7.9120 289° West 467 537 37,000  Level FlightAware ADS-B
Tue 10:05:43 AM 62.7390 -8.1550 288° West 468 539 37,000  Level FlightAware ADS-B
Tue 10:06:28 AM 62.7660 -8.3400 288° West 468 539 37,000  Level FlightAware ADS-B
Tue 10:07:04 AM 62.7850 -8.4780 287° West 468 539 37,000  Level FlightAware ADS-B
Tue 10:07:40 AM 62.8040 -8.6170 287° West 468 539 37,000  Level FlightAware ADS-B
Tue 10:08:17 AM 62.8240 -8.7590 287° West 468 539 37,000  Level FlightAware ADS-B
Tue 10:08:55 AM 62.8640 -9.0100 289° West 466 536 37,000  Level FlightAware ADS-B
Tue 10:09:35 AM 62.8900 -9.1940 287° West 465 535 37,000  Level FlightAware ADS-B
Tue 10:10:11 AM 62.9130 -9.3580 287° West 463 533 37,000  Level FlightAware ADS-B
Tue 10:10:42 AM 62.9310 -9.4900 287° West 461 531 37,000  Level FlightAware ADS-B
Tue 10:11:44 AM 62.9670 -9.7580 287° West 461 531 37,000  Level FlightAware ADS-B
Tue 10:12:19 AM 62.9890 -9.9120 288° West 459 528 37,000  Level FlightAware ADS-B
Tue 10:12:51 AM 63.0100 -10.0750 286° West 459 528 37,000  Level FlightAware ADS-B
Tue 10:13:23 AM 63.0300 -10.2160 287° West 460 529 37,000  Level FlightAware ADS-B
Tue 10:14:02 AM 63.0520 -10.3790 287° West 460 529 37,000  Level FlightAware ADS-B
Tue 10:14:37 AM 63.0750 -10.5440 287° West 461 531 37,000  Level FlightAware ADS-B
Tue 10:15:13 AM 63.0970 -10.7100 286° West 461 531 37,000  Level FlightAware ADS-B
Tue 10:15:45 AM 63.1170 -10.8570 287° West 461 531 37,000  Level FlightAware ADS-B
Tue 10:16:21 AM 63.1380 -11.0160 286° West 461 531 37,000  Level FlightAware ADS-B
Tue 10:16:53 AM 63.1560 -11.1590 286° West 462 532 37,000  Level FlightAware ADS-B
Tue 10:17:33 AM 63.1800 -11.3450 286° West 464 534 37,000  Level FlightAware ADS-B
Tue 10:18:06 AM 63.1990 -11.4920 286° West 464 534 37,000  Level FlightAware ADS-B
Tue 10:18:41 AM 63.2200 -11.6530 286° West 465 535 37,000  Level FlightAware ADS-B
Tue 10:19:17 AM 63.2400 -11.8170 285° West 466 536 37,000  Level FlightAware ADS-B
Tue 10:19:49 AM 63.2590 -11.9670 286° West 467 537 37,000  Level FlightAware ADS-B
Tue 10:20:23 AM 63.2780 -12.1240 285° West 468 539 37,000  Level FlightAware ADS-B
Tue 10:20:59 AM 63.2980 -12.2900 285° West 468 539 37,000  Level FlightAware ADS-B
Tue 10:21:37 AM 63.3190 -12.4680 285° West 466 536 37,000  Level FlightAware ADS-B
Tue 10:22:10 AM 63.3360 -12.6040 286° West 465 535 37,000  Level FlightAware ADS-B
Tue 10:22:46 AM 63.3570 -12.7820 285° West 463 533 37,000  Level FlightAware ADS-B
Tue 10:23:21 AM 63.3750 -12.9420 284° West 462 532 37,000  Level FlightAware ADS-B
Tue 10:23:57 AM 63.3940 -13.1100 284° West 464 534 37,000  Level FlightAware ADS-B
Tue 10:24:30 AM 63.4120 -13.2620 285° West 465 535 37,000  Level FlightAware ADS-B
Tue 10:25:07 AM 63.4310 -13.4350 284° West 465 535 37,000  Level FlightAware ADS-B
Tue 10:25:43 AM 63.4500 -13.6050 284° West 465 535 37,000  Level FlightAware ADS-B
Tue 10:26:15 AM 63.4650 -13.7440 284° West 464 534 37,000  Level FlightAware ADS-B
Tue 10:26:53 AM 63.4850 -13.9290 284° West 463 533 37,000  Level FlightAware ADS-B
Tue 10:27:25 AM 63.5010 -14.0770 284° West 464 534 37,000  Level FlightAware ADS-B
Tue 10:28:01 AM 63.5190 -14.2440 284° West 466 536 37,000  Level FlightAware ADS-B
Tue 10:28:38 AM 63.5370 -14.4150 283° West 467 537 37,000  Level FlightAware ADS-B
Tue 10:29:11 AM 63.5540 -14.5770 283° West 466 536 37,000  Level FlightAware ADS-B
Tue 10:29:48 AM 63.5710 -14.7460 283° West 465 535 37,000  Level FlightAware ADS-B
Tue 10:30:24 AM 63.5880 -14.9150 283° West 465 535 37,000  Level FlightAware ADS-B
Tue 10:30:57 AM 63.6040 -15.0740 283° West 465 535 37,000  Level FlightAware ADS-B
Tue 10:31:31 AM 63.6190 -15.2320 282° West 464 534 37,000  Level FlightAware ADS-B
Tue 10:32:08 AM 63.6350 -15.3930 283° West 465 535 37,000  Level FlightAware ADS-B
Tue 10:32:42 AM 63.6510 -15.5630 282° West 464 534 37,000  Level FlightAware ADS-B
Tue 10:33:15 AM 63.6660 -15.7230 282° West 465 535 37,000  Level FlightAware ADS-B
Tue 10:33:51 AM 63.6820 -15.8880 282° West 465 535 37,000  Level FlightAware ADS-B
Tue 10:34:27 AM 63.6970 -16.0600 281° West 465 535 37,000  Level FlightAware ADS-B
Tue 10:35:01 AM 63.7120 -16.2220 282° West 465 535 37,000  Level FlightAware ADS-B
Tue 10:35:38 AM 63.7280 -16.3940 282° West 465 535 37,000  Level FlightAware ADS-B
Tue 10:36:13 AM 63.7430 -16.5640 281° West 463 533 37,000  Level FlightAware ADS-B
Tue 10:36:47 AM 63.7570 -16.7270 281° West 462 532 37,000  Level FlightAware ADS-B
Tue 10:37:23 AM 63.7710 -16.8940 281° West 462 532 37,000  Level FlightAware ADS-B
Tue 10:37:57 AM 63.7850 -17.0560 281° West 462 532 37,000  Level FlightAware ADS-B
Tue 10:38:31 AM 63.7980 -17.2190 280° West 462 532 37,000  Level FlightAware ADS-B
Tue 10:39:07 AM 63.8110 -17.3760 281° West 464 534 37,000  Level FlightAware ADS-B
Tue 10:39:41 AM 63.8250 -17.5520 280° West 466 536 37,000  Level FlightAware ADS-B
Tue 10:40:17 AM 63.8390 -17.7240 281° West 466 536 37,000  Level FlightAware ADS-B
Tue 10:40:51 AM 63.8520 -17.8870 280° West 466 536 37,000  Level FlightAware ADS-B
Tue 10:41:28 AM 63.8650 -18.0600 280° West 466 536 37,000  Level FlightAware ADS-B
Tue 10:41:59 AM 63.8770 -18.2140 280° West 466 536 37,000  Level FlightAware ADS-B
Tue 10:42:33 AM 63.8890 -18.3760 280° West 467 537 37,000  Level FlightAware ADS-B
Tue 10:43:15 AM 63.9040 -18.5780 280° West 467 537 37,000  Level FlightAware ADS-B
Tue 10:43:47 AM 63.9150 -18.7340 279° West 466 536 37,000  Level FlightAware ADS-B
Tue 10:44:23 AM 63.9280 -18.9070 280° West 465 535 37,000  Level FlightAware ADS-B
Tue 10:44:59 AM 63.9400 -19.0790 279° West 465 535 37,000  Level FlightAware ADS-B
Tue 10:45:31 AM 63.9500 -19.2310 279° West 465 535 37,000  Level FlightAware ADS-B
Tue 10:46:09 AM 63.9610 -19.4010 278° West 464 534 37,000  Level FlightAware ADS-B
Tue 10:46:41 AM 63.9730 -19.5700 279° West 463 533 37,000  Level FlightAware ADS-B
Tue 10:47:18 AM 63.9840 -19.7450 278° West 463 533 37,000  Level FlightAware ADS-B
Tue 10:47:54 AM 63.9950 -19.9190 278° West 463 533 37,000  Level FlightAware ADS-B
Tue 10:48:30 AM 64.0120 -20.0930 283° West 464 534 37,000  Level FlightAware ADS-B
Tue 10:49:02 AM 64.0330 -20.2370 288° West 464 534 37,000  Level FlightAware ADS-B
Tue 10:49:35 AM 64.0540 -20.3930 287° West 465 535 37,000  Level FlightAware ADS-B
Tue 10:50:12 AM 64.0760 -20.5570 287° West 465 535 37,000  Level FlightAware ADS-B
Tue 10:50:50 AM 64.1020 -20.7480 287° West 465 535 37,000  Level FlightAware ADS-B
Tue 10:51:22 AM 64.1210 -20.8950 287° West 464 534 37,000  Level FlightAware ADS-B
Tue 10:51:56 AM 64.1420 -21.0560 287° West 462 532 37,000  Level FlightAware ADS-B
Tue 10:52:35 AM 64.1650 -21.2340 287° West 461 531 37,000  Level FlightAware ADS-B
Tue 10:53:04 AM 64.1820 -21.3650 287° West 460 529 37,000  Level FlightAware ADS-B
Tue 10:53:44 AM 64.2060 -21.5560 286° West 460 529 37,000  Level FlightAware ADS-B
Tue 10:54:20 AM 64.2240 -21.7000 286° West 459 528 37,000  Level FlightAware ADS-B
Tue 10:54:52 AM 64.2460 -21.8770 286° West 460 529 37,000  Level FlightAware ADS-B
Tue 10:55:28 AM 64.2670 -22.0470 286° West 461 531 37,000  Level FlightAware ADS-B
Tue 10:56:02 AM 64.2870 -22.2060 286° West 461 531 37,000  Level FlightAware ADS-B
Tue 10:56:36 AM 64.3060 -22.3680 285° West 460 529 37,000  Level FlightAware ADS-B
Tue 10:57:12 AM 64.3260 -22.5350 286° West 459 528 37,000  Level FlightAware ADS-B
Tue 10:57:50 AM 64.3470 -22.7170 285° West 454 522 37,000  Level FlightAware ADS-B
Tue 10:58:24 AM 64.3650 -22.8720 285° West 452 520 37,000  Level FlightAware ADS-B
Tue 10:59:00 AM 64.3850 -23.0410 285° West 451 519 37,000  Level FlightAware ADS-B
Tue 10:59:32 AM 64.4020 -23.1910 285° West 450 518 37,000  Level FlightAware ADS-B
Tue 11:00:09 AM 64.4200 -23.3520 285° West 449 517 37,000  Level FlightAware ADS-B
Tue 11:00:44 AM 64.4390 -23.5240 284° West 450 518 37,000  Level FlightAware ADS-B
Tue 11:01:16 AM 64.4560 -23.6730 285° West 450 518 37,000  Level FlightAware ADS-B
Tue 11:01:52 AM 64.4740 -23.8400 284° West 451 519 37,000  Level FlightAware ADS-B
Tue 11:02:29 AM 64.4930 -24.0150 284° West 452 520 37,000  Level FlightAware ADS-B
Tue 11:03:04 AM 64.5100 -24.1760 284° West 453 521 37,000  Level FlightAware ADS-B
Tue 11:03:35 AM 64.5250 -24.3250 283° West 450 518 37,000  Level FlightAware ADS-B
Tue 11:04:12 AM 64.5420 -24.4840 284° West 449 517 37,000  Level FlightAware ADS-B
Tue 11:04:49 AM 64.5610 -24.6720 283° West 449 517 37,000  Level FlightAware ADS-B
Tue 11:05:21 AM 64.5760 -24.8210 283° West 450 518 37,000  Level FlightAware ADS-B
Tue 11:05:55 AM 64.5930 -24.9820 284° West 450 518 37,000  Level FlightAware ADS-B
Tue 11:06:31 AM 64.6090 -25.1510 283° West 451 519 37,000  Level FlightAware ADS-B
Tue 11:07:15 AM 64.6290 -25.3590 283° West 446 513 37,000  Level FlightAware ADS-B
Tue 11:07:52 AM 64.6450 -25.5250 283° West 443 510 37,000  Level FlightAware ADS-B
Tue 11:08:24 AM 64.6600 -25.6750 283° West 442 509 37,000  Level FlightAware ADS-B
Tue 11:09:00 AM 64.6750 -25.8440 282° West 443 510 37,000  Level FlightAware ADS-B
Tue 11:09:34 AM 64.6900 -26.0030 283° West 441 507 37,000  Level FlightAware ADS-B
Tue 11:10:08 AM 64.7050 -26.1610 283° West 439 505 37,000  Level FlightAware ADS-B
Tue 11:10:47 AM 64.7210 -26.3430 282° West 436 502 37,000  Level FlightAware ADS-B
Tue 11:11:06 AM 64.7290 -26.4270 283° West 435 501 37,000  Level FlightAware ADS-B
Tue 11:11:54 AM 64.7450 -26.6150 281° West 432 497 37,000  Level FlightAware ADS-B
Tue 11:12:29 AM 64.7620 -26.8050 282° West 432 497 37,000  Level FlightAware ADS-B
Tue 11:13:03 AM 64.7750 -26.9630 281° West 431 496 37,000  Level FlightAware ADS-B
Tue 11:13:39 AM 64.7890 -27.1300 281° West 432 497 37,000  Level FlightAware ADS-B
Tue 11:14:11 AM 64.7990 -27.2480 281° West 431 496 37,000  Level FlightAware ADS-B
Tue 11:14:47 AM 64.8150 -27.4350 281° West 430 495 37,000  Level FlightAware ADS-B
Tue 11:15:22 AM 64.8280 -27.5970 281° West 430 495 37,000  Level FlightAware ADS-B
Tue 11:15:58 AM 64.8410 -27.7630 281° West 430 495 37,000  Level FlightAware ADS-B
Tue 11:16:33 AM 64.8530 -27.9200 280° West 431 496 37,000  Level FlightAware ADS-B
Tue 11:17:04 AM 64.8640 -28.0630 280° West 431 496 37,000  Level FlightAware ADS-B
Tue 11:17:43 AM 64.8790 -28.2480 281° West 433 498 37,000  Level FlightAware ADS-B
Tue 11:18:18 AM 64.8890 -28.3930 279° West 435 501 37,000  Level FlightAware ADS-B
Tue 11:18:55 AM 64.9030 -28.5810 280° West 436 502 37,000  Level FlightAware ADS-B
Tue 11:19:31 AM 64.9160 -28.7510 280° West 436 502 37,000  Level FlightAware ADS-B
Tue 11:20:18 AM 64.9290 -28.9480 279° West 436 502 37,000  Level FlightAware ADS-B
Tue 11:20:52 AM 64.9380 -29.0840 279° West 436 502 37,000  Level FlightAware ADS-B
Tue 11:21:29 AM 64.9540 -29.2970 280° West 434 499 37,000  Level FlightAware ADS-B
Tue 11:22:01 AM 64.9640 -29.4500 279° West 434 499 37,000  Level FlightAware ADS-B
Tue 11:22:47 AM 64.9790 -29.6640 280° West 435 501 37,000  Level FlightAware ADS-B
Tue 11:23:19 AM 64.9890 -29.8150 279° West 436 502 37,000  Level FlightAware ADS-B
Tue 11:23:53 AM 64.9990 -29.9720 279° West 436 502 37,000  Level FlightAware ADS-B
Tue 11:24:29 AM 65.0050 -30.1430 275° West 436 502 37,000  Level FlightAware ADS-B
Tue 11:25:13 AM 65.0120 -30.3530 275° West 436 502 37,000  Level FlightAware ADS-B
Tue 11:25:49 AM 65.0170 -30.5250 274° West 437 503 37,000  Level FlightAware ADS-B
Tue 11:26:21 AM 65.0210 -30.6740 274° West 437 503 37,000  Level FlightAware ADS-B
Tue 11:27:04 AM 65.0250 -30.8470 273° West 437 503 37,000  Level FlightAware ADS-B
Tue 11:27:47 AM 65.0330 -31.0870 275° West 438 504 37,000  Level FlightAware ADS-B
Tue 11:28:21 AM 65.0370 -31.2490 273° West 438 504 37,000  Level FlightAware ADS-B
Tue 11:28:59 AM 65.0410 -31.4120 273° West 437 503 37,000  Level FlightAware ADS-B
Tue 11:29:35 AM 65.0440 -31.5580 273° West 437 503 37,000  Level FlightAware ADS-B
Tue 11:30:11 AM 65.0470 -31.7050 273° West 437 503 37,000  Level FlightAware ADS-B
Tue 11:30:48 AM 65.0500 -31.8550 273° West 437 503 37,000  Level FlightAware ADS-B
Tue 11:31:24 AM 65.0530 -32.0020 273° West 437 503 37,000  Level FlightAware ADS-B
Tue 11:32:00 AM 65.0570 -32.1480 274° West 437 503 37,000  Level FlightAware ADS-B
Tue 11:32:36 AM 65.0600 -32.2950 273° West 437 503 37,000  Level FlightAware ADS-B
Tue 11:33:12 AM 65.0630 -32.4410 273° West 437 503 37,000  Level FlightAware ADS-B
Tue 11:33:49 AM 65.0660 -32.5920 273° West 437 503 37,000  Level FlightAware ADS-B
Tue 11:34:25 AM 65.0700 -32.7390 274° West 437 503 37,000  Level FlightAware ADS-B
Tue 11:35:01 AM 65.0730 -32.8850 273° West 437 503 37,000  Level FlightAware ADS-B
Tue 11:35:37 AM 65.0760 -33.0320 273° West 437 503 37,000  Level FlightAware ADS-B
Tue 11:36:13 AM 65.0790 -33.1780 273° West 437 503 37,000  Level FlightAware ADS-B
Tue 11:36:49 AM 65.0830 -33.3250 274° West 437 503 37,000  Level FlightAware ADS-B
Tue 11:37:25 AM 65.0860 -33.4720 273° West 437 503 37,000  Level FlightAware ADS-B
Tue 11:38:01 AM 65.0890 -33.6180 273° West 437 503 37,000  Level FlightAware ADS-B
Tue 11:40:00 AM 64.9737 -34.1042 241° Southwest  Level Estimated
Tue 11:41:00 AM 64.9150 -34.3477 240° Southwest  Level Estimated
Tue 11:42:00 AM 64.8559 -34.5902 240° Southwest  Level Estimated
Tue 11:43:00 AM 64.7964 -34.8316 240° Southwest  Level Estimated
Tue 11:44:00 AM 64.7365 -35.0719 240° Southwest  Level Estimated
Tue 11:45:00 AM 64.6762 -35.3112 240° Southwest  Level Estimated
Tue 11:46:00 AM 64.6155 -35.5494 239° Southwest  Level Estimated
Tue 11:47:00 AM 64.5544 -35.7866 239° Southwest  Level Estimated
Tue 11:48:00 AM 64.4930 -36.0227 239° Southwest  Level Estimated
Tue 11:49:00 AM 64.4312 -36.2577 239° Southwest  Level Estimated
Tue 11:50:00 AM 64.3690 -36.4916 239° Southwest  Level Estimated
Tue 11:51:00 AM 64.3064 -36.7245 238° Southwest  Level Estimated
Tue 11:52:00 AM 64.2435 -36.9564 238° Southwest  Level Estimated
Tue 11:53:00 AM 64.1802 -37.1872 238° Southwest  Level Estimated
Tue 11:54:00 AM 64.1166 -37.4169 238° Southwest  Level Estimated
Tue 11:55:00 AM 64.0526 -37.6456 237° Southwest  Level Estimated
Tue 11:56:00 AM 63.9882 -37.8732 237° Southwest  Level Estimated
Tue 11:57:00 AM 63.9235 -38.0998 237° Southwest  Level Estimated
Tue 11:58:00 AM 63.8584 -38.3253 237° Southwest  Level Estimated
Tue 11:59:00 AM 63.7929 -38.5498 237° Southwest  Level Estimated
Tue 12:00:00 PM 63.7272 -38.7733 236° Southwest  Level Estimated
Tue 12:01:00 PM 63.6610 -38.9957 236° Southwest  Level Estimated
Tue 12:02:00 PM 63.5946 -39.2170 236° Southwest  Level Estimated
Tue 12:03:00 PM 63.5278 -39.4374 236° Southwest  Level Estimated
Tue 12:04:00 PM 63.4607 -39.6567 236° Southwest  Level Estimated
Tue 12:05:00 PM 63.3932 -39.8750 235° Southwest  Level Estimated
Tue 12:06:00 PM 63.3254 -40.0922 235° Southwest  Level Estimated
Tue 12:07:00 PM 63.2573 -40.3084 235° Southwest  Level Estimated
Tue 12:08:00 PM 63.1888 -40.5236 235° Southwest  Level Estimated
Tue 12:09:00 PM 63.1200 -40.7378 235° Southwest  Level Estimated
Tue 12:10:00 PM 63.0509 -40.9510 234° Southwest  Level Estimated
Tue 12:11:00 PM 62.9815 -41.1632 234° Southwest  Level Estimated
Tue 12:12:00 PM 62.9118 -41.3743 234° Southwest  Level Estimated
Tue 12:13:00 PM 62.8417 -41.5845 234° Southwest  Level Estimated
Tue 12:14:00 PM 62.7713 -41.7936 234° Southwest  Level Estimated
Tue 12:15:00 PM 62.7007 -42.0018 234° Southwest  Level Estimated
Tue 12:16:00 PM 62.6297 -42.2089 233° Southwest  Level Estimated
Tue 12:17:00 PM 62.5584 -42.4151 233° Southwest  Level Estimated
Tue 12:18:00 PM 62.4868 -42.6203 233° Southwest  Level Estimated
Tue 12:19:00 PM 62.4149 -42.8244 233° Southwest  Level Estimated
Tue 12:20:00 PM 62.3428 -43.0276 233° Southwest  Level Estimated
Tue 12:21:00 PM 62.2703 -43.2299 232° Southwest  Level Estimated
Tue 12:22:00 PM 62.1975 -43.4311 232° Southwest  Level Estimated
Tue 12:23:00 PM 62.1245 -43.6314 232° Southwest  Level Estimated
Tue 12:24:00 PM 62.0511 -43.8308 232° Southwest  Level Estimated
Tue 12:25:00 PM 61.9775 -44.0291 232° Southwest  Level Estimated
Tue 12:26:00 PM 61.9035 -44.2265 232° Southwest  Level Estimated
Tue 12:27:00 PM 61.8293 -44.4230 231° Southwest  Level Estimated
Tue 12:28:00 PM 61.7549 -44.6185 231° Southwest  Level Estimated
Tue 12:29:00 PM 61.6801 -44.8131 231° Southwest  Level Estimated
Tue 12:30:00 PM 61.6051 -45.0067 231° Southwest  Level Estimated
Tue 12:31:00 PM 61.5298 -45.1994 231° Southwest  Level Estimated
Tue 12:32:00 PM 61.4542 -45.3911 231° Southwest  Level Estimated
Tue 12:33:00 PM 61.3784 -45.5819 230° Southwest  Level Estimated
Tue 12:34:00 PM 61.3023 -45.7718 230° Southwest  Level Estimated
Tue 12:35:00 PM 61.2259 -45.9608 230° Southwest  Level Estimated
Tue 12:36:00 PM 61.1493 -46.1488 230° Southwest  Level Estimated
Tue 12:36:32 PM 63.9660 -50.2260 230° Southwest 457 526 37,000  Level FlightAware ADS-B
Tue 12:37:04 PM 63.9430 -50.3720 250° West 458 527 37,000  Level FlightAware ADS-B
Tue 12:37:40 PM 63.9170 -50.5340 250° West 459 528 37,000  Level FlightAware ADS-B
Tue 12:38:14 PM 63.8930 -50.6900 251° West 462 532 37,000  Level FlightAware ADS-B
Tue 12:38:50 PM 63.8660 -50.8560 250° West 462 532 37,000  Level FlightAware ADS-B
Tue 12:39:26 PM 63.8400 -51.0190 250° West 462 532 37,000  Level FlightAware ADS-B
Tue 12:39:58 PM 63.8160 -51.1630 249° West 463 533 37,000  Level FlightAware ADS-B
Tue 12:40:36 PM 63.7880 -51.3360 250° West 463 533 37,000  Level FlightAware ADS-B
Tue 12:41:12 PM 63.7610 -51.4970 249° West 463 533 37,000  Level FlightAware ADS-B
Tue 12:41:42 PM 63.7390 -51.6310 250° West 463 533 37,000  Level FlightAware ADS-B
Tue 12:42:16 PM 63.7130 -51.7870 249° West 463 533 37,000  Level FlightAware ADS-B
Tue 12:42:56 PM 63.6830 -51.9650 249° West 462 532 37,000  Level FlightAware ADS-B
Tue 12:43:32 PM 63.6550 -52.1260 249° West 463 533 37,000  Level FlightAware ADS-B
Tue 12:44:04 PM 63.6300 -52.2700 249° West 463 533 37,000  Level FlightAware ADS-B
Tue 12:44:40 PM 63.6020 -52.4330 249° West 461 531 37,000  Level FlightAware ADS-B
Tue 12:45:12 PM 63.5770 -52.5740 248° West 461 531 37,000  Level FlightAware ADS-B
Tue 12:45:51 PM 63.5470 -52.7470 249° West 461 531 37,000  Level FlightAware ADS-B
Tue 12:46:24 PM 63.5200 -52.8930 248° West 462 532 37,000  Level FlightAware ADS-B
Tue 12:47:00 PM 63.4920 -53.0490 248° West 463 533 37,000  Level FlightAware ADS-B
Tue 12:47:34 PM 63.4650 -53.2010 248° West 465 535 37,000  Level FlightAware ADS-B
Tue 12:48:08 PM 63.4380 -53.3510 248° West 465 535 37,000  Level FlightAware ADS-B
Tue 12:48:42 PM 63.4100 -53.5040 248° West 465 535 37,000  Level FlightAware ADS-B
Tue 12:49:21 PM 63.3790 -53.6680 247° West 465 535 37,000  Level FlightAware ADS-B
Tue 12:49:56 PM 63.3490 -53.8300 248° West 466 536 37,000  Level FlightAware ADS-B
Tue 12:50:28 PM 63.3230 -53.9680 247° West 466 536 37,000  Level FlightAware ADS-B
Tue 12:51:06 PM 63.2910 -54.1350 247° West 466 536 37,000  Level FlightAware ADS-B
Tue 12:51:36 PM 63.2660 -54.2650 247° West 467 537 37,000  Level FlightAware ADS-B
Tue 12:52:12 PM 63.2380 -54.4090 247° West 467 537 37,000  Level FlightAware ADS-B
Tue 12:52:51 PM 63.2090 -54.5540 246° West 467 537 37,000  Level FlightAware ADS-B
Tue 12:53:25 PM 63.1830 -54.6810 246° West 467 537 37,000  Level FlightAware ADS-B
Tue 12:54:03 PM 63.1550 -54.8220 246° West 467 537 37,000  Level FlightAware ADS-B
Tue 12:54:37 PM 63.1290 -54.9480 246° West 467 537 37,000  Level FlightAware ADS-B
Tue 12:55:15 PM 63.1010 -55.0890 246° West 467 537 37,000  Level FlightAware ADS-B
Tue 12:55:50 PM 63.0750 -55.2190 246° West 467 537 37,000  Level FlightAware ADS-B
Tue 12:56:26 PM 63.0480 -55.3520 246° West 467 537 37,000  Level FlightAware ADS-B
Tue 12:57:02 PM 63.0210 -55.4860 246° West 467 537 37,000  Level FlightAware ADS-B
Tue 12:57:38 PM 62.9940 -55.6190 246° West 467 537 37,000  Level FlightAware ADS-B
Tue 12:58:16 PM 62.9660 -55.7590 246° West 467 537 37,000  Level FlightAware ADS-B
Tue 12:58:51 PM 62.9400 -55.8880 246° West 467 537 37,000  Level FlightAware ADS-B
Tue 12:59:27 PM 62.9130 -56.0210 246° West 467 537 37,000  Level FlightAware ADS-B
Tue 01:00:03 PM 62.8860 -56.1530 246° West 467 537 37,000  Level FlightAware ADS-B
Tue 01:00:39 PM 62.8590 -56.2860 246° West 467 537 37,000  Level FlightAware ADS-B
Tue 01:01:16 PM 62.8310 -56.4220 246° West 467 537 37,000  Level FlightAware ADS-B
Tue 01:03:00 PM 62.7466 -56.8138 245° Southwest  Level FlightAware Approximate
Tue 01:04:00 PM 62.6538 -56.9574 215° Southwest  Level Estimated
Tue 01:05:00 PM 62.5608 -57.1001 215° Southwest  Level Estimated
Tue 01:06:00 PM 62.4678 -57.2419 215° Southwest  Level Estimated
Tue 01:07:00 PM 62.3745 -57.3828 215° Southwest  Level Estimated
Tue 01:08:00 PM 62.2811 -57.5228 215° Southwest  Level Estimated
Tue 01:09:00 PM 62.1876 -57.6620 215° Southwest  Level Estimated
Tue 01:09:18 PM 62.0667 -58.3833 214° Southwest 360 414 37,000  Level Gander Center
Tue 01:10:00 PM 62.0939 -57.8003 215° Southwest  Level Estimated
Tue 01:10:13 PM 62.0000 -58.5000 219° Southwest 430 495 37,000  Level Montreal Center
Tue 01:11:00 PM 62.0001 -57.9377 215° Southwest  Level Estimated
Tue 01:11:13 PM 61.9167 -58.7333 233° Southwest 470 541 37,000  Level Montreal Center
Tue 01:12:00 PM 61.9062 -58.0743 214° Southwest  Level Estimated
Tue 01:12:13 PM 61.8333 -58.9167 226° Southwest 470 541 37,000  Level Montreal Center
Tue 01:13:00 PM 61.8121 -58.2101 214° Southwest  Level Estimated
Tue 01:13:13 PM 61.7500 -59.1500 233° Southwest 470 541 36,800  Level Montreal Center
Tue 01:14:00 PM 61.7179 -58.3450 214° Southwest  Level Estimated
Tue 01:14:13 PM 61.6667 -59.3500 229° Southwest 470 541 36,300  Level Montreal Center
Tue 01:15:13 PM 61.5833 -59.5667 231° Southwest 470 541 36,000 -150 Descending Montreal Center
Tue 01:16:13 PM 61.5000 -59.7833 231° Southwest 470 541 36,000  Level Montreal Center
Tue 01:17:13 PM 61.4000 -59.9833 224° Southwest 470 541 36,000  Level Montreal Center
Tue 01:18:13 PM 61.3333 -60.2000 237° Southwest 470 541 36,000  Level Montreal Center
Tue 01:19:13 PM 61.2500 -60.3833 227° Southwest 460 529 36,000  Level Montreal Center
Tue 01:20:13 PM 61.1500 -60.6000 226° Southwest 460 529 36,000  Level Montreal Center
Tue 01:21:13 PM 61.0667 -60.7833 227° Southwest 460 529 36,000  Level Montreal Center
Tue 01:22:13 PM 60.9833 -61.0000 232° Southwest 460 529 36,000  Level Montreal Center
Tue 01:23:13 PM 60.9167 -61.1667 231° Southwest 460 529 36,000  Level Montreal Center
Tue 01:24:13 PM 60.8333 -61.3833 232° Southwest 470 541 36,000  Level Montreal Center
Tue 01:25:13 PM 60.7333 -61.6000 227° Southwest 470 541 36,000  Level Montreal Center
Tue 01:26:13 PM 60.6500 -61.7833 227° Southwest 470 541 36,000  Level Montreal Center
Tue 01:27:13 PM 60.5667 -61.9833 230° Southwest 470 541 36,000  Level Montreal Center
Tue 01:28:13 PM 60.4667 -62.1667 222° Southwest 470 541 36,000  Level Montreal Center
Tue 01:29:13 PM 60.3833 -62.3667 230° Southwest 470 541 36,000  Level Montreal Center
Tue 01:30:13 PM 60.3000 -62.5833 232° Southwest 470 541 36,000  Level Montreal Center
Tue 01:31:13 PM 60.2167 -62.7833 230° Southwest 460 529 36,000  Level Montreal Center
Tue 01:32:13 PM 60.1167 -62.9667 222° Southwest 460 529 36,000  Level Montreal Center
Tue 01:33:13 PM 60.0333 -63.1333 225° Southwest 460 529 36,000  Level Montreal Center
Tue 01:34:13 PM 59.9333 -63.3333 225° Southwest 460 529 36,000  Level Montreal Center
Tue 01:35:13 PM 59.8333 -63.4833 217° Southwest 460 529 36,000  Level Montreal Center
Tue 01:36:13 PM 59.7167 -63.6500 216° Southwest 460 529 36,000  Level Montreal Center
Tue 01:37:13 PM 59.6167 -63.8000 217° Southwest 460 529 36,000  Level Montreal Center
Tue 01:38:13 PM 59.5333 -63.9167 215° Southwest 460 529 36,000  Level Montreal Center
Tue 01:39:13 PM 59.4167 -64.0667 213° Southwest 460 529 36,000  Level Montreal Center
Tue 01:40:13 PM 59.3167 -64.2000 214° Southwest 460 529 36,000  Level Montreal Center
Tue 01:41:13 PM 59.2000 -64.3333 210° Southwest 460 529 36,000  Level Montreal Center
Tue 01:42:13 PM 59.1000 -64.4667 214° Southwest 460 529 36,000  Level Montreal Center
Tue 01:43:13 PM 59.0000 -64.6000 214° Southwest 460 529 36,000  Level Montreal Center
Tue 01:44:13 PM 58.8833 -64.7333 211° Southwest 460 529 36,000  Level Montreal Center
Tue 01:45:13 PM 58.7833 -64.9000 221° Southwest 460 529 36,000  Level Montreal Center
Tue 01:46:13 PM 58.6667 -65.0333 211° Southwest 460 529 36,000  Level Montreal Center
Tue 01:47:13 PM 58.5667 -65.1667 215° Southwest 460 529 36,000  Level Montreal Center
Tue 01:48:13 PM 58.4500 -65.3000 211° Southwest 460 529 36,000  Level Montreal Center
Tue 01:49:13 PM 58.3500 -65.4167 211° Southwest 450 518 36,000  Level Montreal Center
Tue 01:50:13 PM 58.2333 -65.5500 211° Southwest 460 529 36,000  Level Montreal Center
Tue 01:51:13 PM 58.1333 -65.6833 215° Southwest 460 529 36,000  Level Montreal Center
Tue 01:52:13 PM 58.0167 -65.8000 208° Southwest 450 518 36,000  Level Montreal Center
Tue 01:53:13 PM 57.9167 -65.9667 222° Southwest 460 529 36,000  Level Montreal Center
Tue 01:54:13 PM 57.8333 -66.0833 217° Southwest 450 518 36,000  Level Montreal Center
Tue 01:55:13 PM 57.7167 -66.2000 208° Southwest 450 518 36,000  Level Montreal Center
Tue 01:56:13 PM 57.6000 -66.3333 211° Southwest 450 518 36,000  Level Montreal Center
Tue 01:57:13 PM 57.5000 -66.4500 213° Southwest 450 518 36,000  Level Montreal Center
Tue 01:58:00 PM 57.4229 -66.4834 205° Southwest  Level FlightAware Approximate
Tue 01:58:13 PM 57.3833 -66.5833 212° Southwest 450 518 36,000  Level Montreal Center
Tue 01:59:13 PM 57.2833 -66.7000 212° Southwest 450 518 36,000  Level Montreal Center
Tue 02:00:13 PM 57.1833 -66.8167 212° Southwest 450 518 36,000  Level Montreal Center
Tue 02:01:13 PM 57.0833 -66.9333 212° Southwest 450 518 36,000  Level Montreal Center
Tue 02:02:13 PM 56.9500 -67.0833 212° Southwest 450 518 36,000  Level Montreal Center
Tue 02:03:13 PM 56.8333 -67.2167 212° Southwest 460 529 36,000  Level Montreal Center
Tue 02:04:13 PM 56.7500 -67.3167 213° Southwest 460 529 36,000  Level Montreal Center
Tue 02:05:00 PM 56.7419 -67.2597 213° Southwest  Level FlightAware Approximate
Tue 02:05:13 PM 56.6333 -67.4333 209° Southwest 450 518 36,000  Level Montreal Center
Tue 02:06:13 PM 56.5333 -67.5500 213° Southwest 450 518 36,000  Level Montreal Center
Tue 02:07:13 PM 56.4167 -67.6667 209° Southwest 450 518 36,000  Level Montreal Center
Tue 02:08:13 PM 56.3167 -67.7833 213° Southwest 440 506 36,000  Level Montreal Center
Tue 02:09:13 PM 56.2167 -67.9000 213° Southwest 440 506 36,000  Level Montreal Center
Tue 02:10:13 PM 56.1000 -68.0167 209° Southwest 440 506 36,000  Level Montreal Center
Tue 02:11:13 PM 56.0000 -68.1167 209° Southwest 440 506 36,000  Level Montreal Center
Tue 02:12:13 PM 55.9000 -68.2333 213° Southwest 440 506 36,000  Level Montreal Center
Tue 02:13:13 PM 55.8000 -68.3500 213° Southwest 440 506 36,000  Level Montreal Center
Tue 02:14:13 PM 55.6833 -68.4500 210° Southwest 440 506 36,000  Level Montreal Center
Tue 02:15:00 PM 55.6220 -68.5273 209° Southwest  Level FlightAware Approximate
Tue 02:15:13 PM 55.5833 -68.5667 213° Southwest 440 506 36,000  Level Montreal Center
Tue 02:16:13 PM 55.4667 -68.6833 210° Southwest 440 506 36,000  Level Montreal Center
Tue 02:17:13 PM 55.3500 -68.7833 206° Southwest 440 506 36,000  Level Montreal Center
Tue 02:18:13 PM 55.2500 -68.9000 214° Southwest 440 506 36,000  Level Montreal Center
Tue 02:19:13 PM 55.1500 -69.0000 210° Southwest 440 506 36,000  Level Montreal Center
Tue 02:20:13 PM 55.0500 -69.1000 210° Southwest 430 495 36,000  Level Montreal Center
Tue 02:21:13 PM 54.9333 -69.2167 210° Southwest 430 495 36,000  Level Montreal Center
Tue 02:22:00 PM 54.9216 -69.2125 210° Southwest  Level FlightAware Approximate
Tue 02:22:13 PM 54.8333 -69.3167 210° Southwest 430 495 36,000  Level Montreal Center
Tue 02:23:13 PM 54.7333 -69.4333 214° Southwest 430 495 36,000  Level Montreal Center
Tue 02:24:13 PM 54.6167 -69.5333 206° Southwest 440 506 36,000  Level Montreal Center
Tue 02:25:13 PM 54.5167 -69.6333 210° Southwest 430 495 36,000  Level Montreal Center
Tue 02:26:13 PM 54.4167 -69.7333 210° Southwest 430 495 36,000  Level Montreal Center
Tue 02:27:13 PM 54.3000 -69.8500 210° Southwest 430 495 36,000  Level Montreal Center
Tue 02:28:13 PM 54.2000 -69.9500 210° Southwest 430 495 36,000  Level Montreal Center
Tue 02:29:13 PM 54.0833 -70.0500 207° Southwest 430 495 36,000  Level Montreal Center
Tue 02:30:13 PM 53.9833 -70.1500 210° Southwest 430 495 36,000  Level Montreal Center
Tue 02:31:13 PM 53.8833 -70.2500 211° Southwest 430 495 36,000  Level Montreal Center
Tue 02:32:13 PM 53.7833 -70.3500 211° Southwest 430 495 36,000  Level Montreal Center
Tue 02:33:13 PM 53.6667 -70.4500 207° Southwest 430 495 36,000  Level Montreal Center
Tue 02:34:13 PM 53.5667 -70.5500 211° Southwest 430 495 36,000  Level Montreal Center
Tue 02:35:13 PM 53.4667 -70.6500 211° Southwest 430 495 36,000  Level Montreal Center
Tue 02:36:13 PM 53.3667 -70.7333 206° Southwest 430 495 36,000  Level Montreal Center
Tue 02:37:13 PM 53.2667 -70.8333 211° Southwest 420 483 36,000  Level Montreal Center
Tue 02:38:13 PM 53.1500 -70.9333 207° Southwest 430 495 36,000  Level Montreal Center
Tue 02:39:13 PM 53.0500 -71.0333 211° Southwest 430 495 36,000  Level Montreal Center
Tue 02:40:13 PM 52.9333 -71.1000 199° South 430 495 36,000  Level Montreal Center
Tue 02:41:13 PM 52.8167 -71.2000 207° Southwest 420 483 36,000  Level Montreal Center
Tue 02:42:13 PM 52.7333 -71.2833 211° Southwest 420 483 36,000  Level Montreal Center
Tue 02:43:13 PM 52.6333 -71.3833 211° Southwest 420 483 36,000  Level Montreal Center
Tue 02:44:13 PM 52.5167 -71.4833 208° Southwest 420 483 36,000  Level Montreal Center
Tue 02:45:13 PM 52.4167 -71.5667 207° Southwest 420 483 36,000  Level Montreal Center
Tue 02:46:13 PM 52.3167 -71.6667 211° Southwest 420 483 36,000  Level Montreal Center
Tue 02:47:13 PM 52.2000 -71.7667 208° Southwest 420 483 36,000  Level Montreal Center
Tue 02:48:13 PM 52.1000 -71.8500 207° Southwest 420 483 36,000  Level Montreal Center
Tue 02:49:13 PM 52.0000 -71.9500 212° Southwest 420 483 36,000  Level Montreal Center
Tue 02:50:13 PM 51.9000 -72.0333 207° Southwest 420 483 36,000  Level Montreal Center
Tue 02:51:13 PM 51.8000 -72.1000 202° Southwest 420 483 36,000  Level Montreal Center
Tue 02:52:13 PM 51.7000 -72.1833 207° Southwest 420 483 36,000  Level Montreal Center
Tue 02:53:13 PM 51.5833 -72.2833 208° Southwest 420 483 36,000  Level Montreal Center
Tue 02:54:13 PM 51.4833 -72.3667 207° Southwest 420 483 36,000  Level Montreal Center
Tue 02:55:13 PM 51.3667 -72.4667 208° Southwest 420 483 36,000  Level Montreal Center
Tue 02:56:13 PM 51.2833 -72.5667 217° Southwest 420 483 36,000  Level Montreal Center
Tue 02:57:13 PM 51.1833 -72.6833 216° Southwest 420 483 36,000  Level Montreal Center
Tue 02:58:13 PM 51.0833 -72.8000 216° Southwest 420 483 36,000  Level Montreal Center
Tue 02:59:13 PM 51.0000 -72.9167 221° Southwest 420 483 36,000  Level Montreal Center
Tue 03:00:13 PM 50.9167 -73.0333 221° Southwest 420 483 36,000  Level Montreal Center
Tue 03:01:13 PM 50.8333 -73.1333 217° Southwest 410 472 36,000  Level Montreal Center
Tue 03:02:13 PM 50.7333 -73.2500 216° Southwest 410 472 36,000  Level Montreal Center
Tue 03:03:13 PM 50.6333 -73.3667 217° Southwest 410 472 36,000  Level Montreal Center
Tue 03:04:13 PM 50.5333 -73.4833 217° Southwest 420 483 36,000  Level Montreal Center
Tue 03:05:13 PM 50.4500 -73.5833 217° Southwest 420 483 36,000  Level Montreal Center
Tue 03:06:13 PM 50.3500 -73.7167 220° Southwest 420 483 36,000  Level Montreal Center
Tue 03:07:13 PM 50.2667 -73.8000 213° Southwest 420 483 36,000  Level Montreal Center
Tue 03:08:13 PM 50.1833 -73.9500 229° Southwest 420 483 36,000  Level Montreal Center
Tue 03:09:13 PM 50.0833 -74.0500 213° Southwest 420 483 36,000  Level Montreal Center
Tue 03:10:13 PM 50.0000 -74.1667 222° Southwest 420 483 36,000  Level Montreal Center
Tue 03:11:44 PM 49.8667 -74.3167 216° Southwest 430 495 36,000  Level Montreal Center
Tue 03:12:44 PM 49.7667 -74.4333 217° Southwest 420 483 36,000  Level Montreal Center
Tue 03:13:44 PM 49.6667 -74.5333 213° Southwest 420 483 36,000  Level Montreal Center
Tue 03:14:44 PM 49.5833 -74.6500 222° Southwest 410 472 36,000  Level Montreal Center
Tue 03:15:44 PM 49.4833 -74.7500 213° Southwest 410 472 36,000  Level Montreal Center
Tue 03:16:44 PM 49.4000 -74.8500 218° Southwest 410 472 36,000  Level Montreal Center
Tue 03:17:44 PM 49.3000 -74.9667 217° Southwest 410 472 36,000  Level Montreal Center
Tue 03:18:44 PM 49.2000 -75.0667 213° Southwest 420 483 36,000  Level Montreal Center
Tue 03:19:44 PM 49.1167 -75.1667 218° Southwest 410 472 36,000  Level Montreal Center
Tue 03:20:44 PM 49.0167 -75.2667 213° Southwest 410 472 36,000  Level Montreal Center
Tue 03:21:44 PM 48.9333 -75.3833 223° Southwest 410 472 36,000  Level Montreal Center
Tue 03:22:44 PM 48.8333 -75.4833 213° Southwest 410 472 36,000  Level Montreal Center
Tue 03:23:44 PM 48.7500 -75.5833 218° Southwest 410 472 36,000  Level Montreal Center
Tue 03:24:44 PM 48.6500 -75.6833 213° Southwest 410 472 36,000  Level Montreal Center
Tue 03:25:44 PM 48.5500 -75.7833 214° Southwest 410 472 36,000  Level Montreal Center
Tue 03:26:44 PM 48.4667 -75.9167 227° Southwest 420 483 36,000  Level Montreal Center
Tue 03:27:44 PM 48.3667 -76.0167 214° Southwest 420 483 36,000  Level Montreal Center
Tue 03:28:44 PM 48.2833 -76.1000 214° Southwest 420 483 36,000  Level Montreal Center
Tue 03:31:00 PM 48.1590 -76.2281 215° Southwest  Level FlightAware Approximate
Tue 03:37:25 PM 47.7900 -76.6340 215° Southwest 416 479 36,000  Level FlightAware ADS-B
Tue 03:37:30 PM 47.7860 -76.6380 214° Southwest 416 479 36,000  Level FlightAware ADS-B
Tue 03:37:38 PM 47.7830 -76.6420 222° Southwest 416 479 36,000  Level FlightAware ADS-B
Tue 03:37:43 PM 47.7800 -76.6450 214° Southwest 416 479 36,000  Level FlightAware ADS-B
Tue 03:37:51 PM 47.7770 -76.6480 214° Southwest 416 479 36,000  Level FlightAware ADS-B
Tue 03:37:54 PM 47.7760 -76.6500 233° Southwest 416 479 36,000  Level FlightAware ADS-B
Tue 03:38:01 PM 47.7740 -76.6510 199° South 416 479 36,000  Level FlightAware ADS-B
Tue 03:38:18 PM 47.7660 -76.6600 217° Southwest 416 479 36,000  Level FlightAware ADS-B
Tue 03:38:25 PM 47.7650 -76.6610 214° Southwest 416 479 36,000  Level FlightAware ADS-B
Tue 03:39:19 PM 47.2900 -77.1580 215° Southwest 413 475 36,000  Level FlightAware ADS-B
Tue 03:39:57 PM 47.2270 -77.2230 215° Southwest 416 479 36,000  Level FlightAware ADS-B
Tue 03:40:19 PM 47.7090 -76.7200 35° Northeast 415 478 36,000  Level FlightAware ADS-B
Tue 03:40:46 PM 47.6990 -76.7310 217° Southwest 415 478 36,000  Level FlightAware ADS-B
Tue 03:40:52 PM 47.6960 -76.7330 204° Southwest 415 478 36,000  Level FlightAware ADS-B
Tue 03:40:59 PM 47.6940 -76.7360 225° Southwest 415 478 36,000  Level FlightAware ADS-B
Tue 03:41:05 PM 47.6920 -76.7370 199° South 415 478 36,000  Level FlightAware ADS-B
Tue 03:41:15 PM 47.6880 -76.7420 220° Southwest 415 478 36,000  Level FlightAware ADS-B
Tue 03:42:14 PM 47.0120 -77.4430 215° Southwest 416 479 36,000  Level FlightAware ADS-B
Tue 03:42:27 PM 47.4730 -76.9680 35° Northeast 414 476 36,000  Level FlightAware ADS-B
Tue 03:42:30 PM 47.4710 -76.9700 214° Southwest 414 476 36,000  Level FlightAware ADS-B
Tue 03:42:38 PM 47.4680 -76.9730 214° Southwest 414 476 36,000  Level FlightAware ADS-B
Tue 03:42:41 PM 47.4670 -76.9740 214° Southwest 414 476 36,000  Level FlightAware ADS-B
Tue 03:42:55 PM 47.4620 -76.9790 214° Southwest 414 476 36,000  Level FlightAware ADS-B
Tue 03:43:02 PM 47.4590 -76.9820 214° Southwest 414 476 36,000  Level FlightAware ADS-B
Tue 03:43:54 PM 46.8560 -77.6020 215° Southwest 410 472 36,000  Level FlightAware ADS-B
Tue 03:44:31 PM 46.7970 -77.6610 214° Southwest 409 471 36,000  Level FlightAware ADS-B
Tue 03:45:08 PM 46.7400 -77.7190 215° Southwest 412 474 36,000  Level FlightAware ADS-B
Tue 03:45:38 PM 46.7010 -77.7580 214° Southwest 412 474 36,000  Level FlightAware ADS-B
Tue 03:46:16 PM 46.6340 -77.8260 215° Southwest 411 473 36,000  Level FlightAware ADS-B
Tue 03:46:58 PM 46.5690 -77.8910 215° Southwest 412 474 36,000  Level FlightAware ADS-B
Tue 03:47:27 PM 47.0790 -77.3750 35° Northeast 418 481 36,000  Level FlightAware ADS-B
Tue 03:48:12 PM 47.0630 -77.3910 214° Southwest 418 481 36,000  Level FlightAware ADS-B
Tue 03:48:19 PM 47.0600 -77.3940 214° Southwest 418 481 36,000  Level FlightAware ADS-B
Tue 03:48:25 PM 47.0580 -77.3960 214° Southwest 418 481 36,000  Level FlightAware ADS-B
Tue 03:48:43 PM 47.0540 -77.4000 214° Southwest 419 482 36,000  Level FlightAware ADS-B
Tue 03:49:26 PM 46.3360 -78.1230 215° Southwest 408 470 36,000  Level FlightAware ADS-B
Tue 03:49:58 PM 46.2850 -78.1730 214° Southwest 407 468 36,000  Level FlightAware ADS-B
Tue 03:50:31 PM 46.2360 -78.2220 215° Southwest 410 472 36,000  Level FlightAware ADS-B
Tue 03:51:07 PM 46.1770 -78.2800 214° Southwest 413 475 36,000  Level FlightAware ADS-B
Tue 03:51:38 PM 46.1300 -78.3260 214° Southwest 412 474 36,000  Level FlightAware ADS-B
Tue 03:52:11 PM 46.0770 -78.3780 214° Southwest 411 473 36,000  Level FlightAware ADS-B
Tue 03:52:46 PM 46.0230 -78.4300 214° Southwest 408 470 36,000  Level FlightAware ADS-B
Tue 03:53:29 PM 45.9550 -78.4970 214° Southwest 408 470 36,000  Level FlightAware ADS-B
Tue 03:54:04 PM 45.9000 -78.5500 214° Southwest 409 471 36,000  Level FlightAware ADS-B
Tue 03:54:40 PM 45.8450 -78.6030 214° Southwest 409 471 36,000  Level FlightAware ADS-B
Tue 03:55:08 PM 45.8000 -78.6470 214° Southwest 409 471 36,000  Level FlightAware ADS-B
Tue 03:55:42 PM 45.7470 -78.6980 214° Southwest 409 471 36,000  Level FlightAware ADS-B
Tue 03:56:18 PM 45.6900 -78.7530 214° Southwest 409 471 36,000  Level FlightAware ADS-B
Tue 03:56:46 PM 45.6460 -78.7950 214° Southwest 409 471 36,000  Level FlightAware ADS-B
Tue 03:57:24 PM 45.5900 -78.8490 214° Southwest 409 471 36,000  Level FlightAware ADS-B
Tue 03:58:01 PM 45.5280 -78.9080 214° Southwest 409 471 36,000  Level FlightAware ADS-B
Tue 03:58:34 PM 45.4780 -78.9560 214° Southwest 409 471 36,000  Level FlightAware ADS-B
Tue 03:59:08 PM 45.4250 -79.0070 214° Southwest 409 471 36,000  Level FlightAware ADS-B
Tue 03:59:45 PM 45.3650 -79.0630 213° Southwest 408 470 36,000  Level FlightAware ADS-B
Tue 04:00:14 PM 45.3200 -79.1050 213° Southwest 408 470 36,000  Level FlightAware ADS-B
Tue 04:00:51 PM 45.2620 -79.1610 214° Southwest 406 467 36,000  Level FlightAware ADS-B
Tue 04:01:36 PM 45.1930 -79.2260 214° Southwest 404 465 36,000  Level FlightAware ADS-B
Tue 04:02:08 PM 45.1420 -79.2730 213° Southwest 405 466 36,000  Level FlightAware ADS-B
Tue 04:02:44 PM 45.0860 -79.3260 214° Southwest 406 467 36,000  Level FlightAware ADS-B
Tue 04:03:18 PM 45.0360 -79.3730 214° Southwest 402 463 36,000  Level FlightAware ADS-B
Tue 04:03:59 PM 44.9720 -79.4320 213° Southwest 404 465 36,000  Level FlightAware ADS-B
Tue 04:04:32 PM 44.9220 -79.4790 214° Southwest 401 461 36,000  Level FlightAware ADS-B
Tue 04:05:06 PM 44.8680 -79.5300 214° Southwest 402 463 36,000  Level FlightAware ADS-B
Tue 04:05:41 PM 44.8140 -79.5790 213° Southwest 403 464 36,000  Level FlightAware ADS-B
Tue 04:06:17 PM 44.7560 -79.6330 213° Southwest 403 464 36,000  Level FlightAware ADS-B
Tue 04:06:53 PM 44.7010 -79.6840 213° Southwest 404 465 36,000  Level FlightAware ADS-B
Tue 04:07:30 PM 44.6410 -79.7390 213° Southwest 405 466 36,000  Level FlightAware ADS-B
Tue 04:07:58 PM 44.6000 -79.7770 213° Southwest 404 465 36,000  Level FlightAware ADS-B
Tue 04:08:35 PM 44.5400 -79.8320 213° Southwest 404 465 36,000  Level FlightAware ADS-B
Tue 04:09:08 PM 44.4890 -79.8770 212° Southwest 399 459 36,000  Level FlightAware ADS-B
Tue 04:09:53 PM 44.4210 -79.9390 213° Southwest 396 456 36,000  Level FlightAware ADS-B
Tue 04:10:28 PM 44.3660 -79.9880 212° Southwest 398 458 36,000  Level FlightAware ADS-B
Tue 04:11:02 PM 44.3120 -80.0370 213° Southwest 395 455 36,000  Level FlightAware ADS-B
Tue 04:11:36 PM 44.2750 -80.0700 213° Southwest 395 455 36,000  Level FlightAware ADS-B
Tue 04:12:13 PM 44.2050 -80.1320 212° Southwest 397 457 36,000  Level FlightAware ADS-B
Tue 04:12:57 PM 44.1350 -80.1940 212° Southwest 400 460 36,000  Level FlightAware ADS-B
Tue 04:13:30 PM 44.0830 -80.2400 212° Southwest 403 464 36,000  Level FlightAware ADS-B
Tue 04:14:02 PM 44.0320 -80.2860 213° Southwest 406 467 36,000  Level FlightAware ADS-B
Tue 04:14:39 PM 43.9740 -80.3370 212° Southwest 404 465 36,000  Level FlightAware ADS-B
Tue 04:15:16 PM 43.9160 -80.3880 212° Southwest 401 461 36,000  Level FlightAware ADS-B
Tue 04:15:52 PM 43.8590 -80.4380 212° Southwest 401 461 36,000  Level FlightAware ADS-B
Tue 04:16:27 PM 43.8050 -80.4860 213° Southwest 400 460 36,000  Level FlightAware ADS-B
Tue 04:17:00 PM 43.7530 -80.5310 212° Southwest 399 459 36,000  Level FlightAware ADS-B
Tue 04:17:34 PM 43.7010 -80.5770 213° Southwest 397 457 36,000  Level FlightAware ADS-B
Tue 04:18:13 PM 43.6410 -80.6290 212° Southwest 396 456 36,000  Level FlightAware ADS-B
Tue 04:18:48 PM 43.5850 -80.6780 212° Southwest 397 457 36,000  Level FlightAware ADS-B
Tue 04:19:25 PM 43.5300 -80.7260 212° Southwest 399 459 36,000  Level FlightAware ADS-B
Tue 04:19:59 PM 43.4750 -80.7740 212° Southwest 401 461 36,000  Level FlightAware ADS-B
Tue 04:20:33 PM 43.4240 -80.8180 212° Southwest 403 464 36,000  Level FlightAware ADS-B
Tue 04:21:10 PM 43.3690 -80.8660 212° Southwest 403 464 36,000  Level FlightAware ADS-B
Tue 04:21:42 PM 43.3130 -80.9130 211° Southwest 403 464 36,000  Level FlightAware ADS-B
Tue 04:22:14 PM 43.2630 -80.9560 212° Southwest 403 464 36,000  Level FlightAware ADS-B
Tue 04:22:50 PM 43.2050 -81.0070 213° Southwest 403 464 36,000  Level FlightAware ADS-B
Tue 04:23:21 PM 43.1570 -81.0470 211° Southwest 403 464 36,000  Level FlightAware ADS-B
Tue 04:23:50 PM 43.1130 -81.0850 212° Southwest 402 463 36,000  Level FlightAware ADS-B
Tue 04:24:25 PM 43.0570 -81.1320 212° Southwest 402 463 36,000  Level FlightAware ADS-B
Tue 04:25:05 PM 42.9900 -81.1770 206° Southwest 409 471 36,000  Level FlightAware ADS-B
Tue 04:25:15 PM 42.9700 -81.1900 205° Southwest 408 470 36,000  Level FlightAware ADS-B
Tue 04:25:23 PM 42.9600 -81.1960 204° Southwest 408 470 36,000  Level FlightAware ADS-B
Tue 04:25:29 PM 42.9470 -81.2040 204° Southwest 407 468 36,000  Level FlightAware ADS-B
Tue 04:25:34 PM 42.9410 -81.2080 206° Southwest 407 468 36,000  Level FlightAware ADS-B
Tue 04:25:43 PM 42.9250 -81.2180 205° Southwest 407 468 36,000  Level FlightAware ADS-B
Tue 04:25:51 PM 42.9090 -81.2280 205° Southwest 407 468 36,000  Level FlightAware ADS-B
Tue 04:25:58 PM 42.8990 -81.2350 207° Southwest 407 468 36,000  Level FlightAware ADS-B
Tue 04:26:15 PM 42.8690 -81.2530 204° Southwest 406 467 36,000  Level FlightAware ADS-B
Tue 04:26:21 PM 42.8590 -81.2600 207° Southwest 406 467 36,000  Level FlightAware ADS-B
Tue 04:26:30 PM 42.8420 -81.2700 203° Southwest 406 467 36,000  Level FlightAware ADS-B
Tue 04:26:35 PM 42.8330 -81.2750 202° Southwest 406 467 36,000  Level FlightAware ADS-B
Tue 04:26:42 PM 42.8220 -81.2820 205° Southwest 406 467 36,000  Level FlightAware ADS-B
Tue 04:26:50 PM 42.8110 -81.2900 208° Southwest 406 467 36,000  Level FlightAware ADS-B
Tue 04:26:58 PM 42.7950 -81.2990 202° Southwest 406 467 36,000  Level FlightAware ADS-B
Tue 04:27:03 PM 42.7880 -81.3030 203° Southwest 405 466 36,000  Level FlightAware ADS-B
Tue 04:27:05 PM 42.7840 -81.3060 209° Southwest 405 466 36,000  Level FlightAware ADS-B
Tue 04:27:17 PM 42.7620 -81.3190 203° Southwest 405 466 36,000  Level FlightAware ADS-B
Tue 04:27:26 PM 42.7500 -81.3270 206° Southwest 405 466 36,000  Level FlightAware ADS-B
Tue 04:27:30 PM 42.7420 -81.3320 205° Southwest 405 466 36,000  Level FlightAware ADS-B
Tue 04:27:37 PM 42.7290 -81.3400 204° Southwest 405 466 36,000  Level FlightAware ADS-B
Tue 04:27:46 PM 42.7140 -81.3490 204° Southwest 405 466 36,000  Level FlightAware ADS-B
Tue 04:27:53 PM 42.7040 -81.3550 204° Southwest 404 465 36,000  Level FlightAware ADS-B
Tue 04:27:59 PM 42.6930 -81.3620 205° Southwest 404 465 36,000  Level FlightAware ADS-B
Tue 04:28:13 PM 42.6690 -81.3760 203° Southwest 405 466 36,000  Level FlightAware ADS-B
Tue 04:28:21 PM 42.6550 -81.3850 205° Southwest 405 466 36,000  Level FlightAware ADS-B
Tue 04:28:28 PM 42.6430 -81.3920 203° Southwest 405 466 36,000  Level FlightAware ADS-B
Tue 04:28:32 PM 42.6360 -81.3970 208° Southwest 405 466 36,000  Level FlightAware ADS-B
Tue 04:28:41 PM 42.6240 -81.4040 203° Southwest 405 466 36,000  Level FlightAware ADS-B
Tue 04:28:49 PM 42.6070 -81.4140 203° Southwest 405 466 36,000  Level FlightAware ADS-B
Tue 04:28:56 PM 42.5950 -81.4220 206° Southwest 405 466 36,000  Level FlightAware ADS-B
Tue 04:29:01 PM 42.5850 -81.4280 204° Southwest 406 467 36,000  Level FlightAware ADS-B
Tue 04:29:05 PM 42.5800 -81.4310 204° Southwest 406 467 36,000  Level FlightAware ADS-B
Tue 04:29:17 PM 42.5580 -81.4440 204° Southwest 406 467 36,000  Level FlightAware ADS-B
Tue 04:29:26 PM 42.5410 -81.4540 203° Southwest 405 466 36,000  Level FlightAware ADS-B
Tue 04:29:28 PM 42.5380 -81.4570 216° Southwest 405 466 36,000  Level FlightAware ADS-B
Tue 04:29:36 PM 42.5260 -81.4640 203° Southwest 405 466 36,000  Level FlightAware ADS-B
Tue 04:29:45 PM 42.5110 -81.4730 204° Southwest 405 466 36,000  Level FlightAware ADS-B
Tue 04:29:50 PM 42.5020 -81.4780 202° Southwest 405 466 36,000  Level FlightAware ADS-B
Tue 04:29:58 PM 42.4880 -81.4870 205° Southwest 404 465 36,000  Level FlightAware ADS-B
Tue 04:30:05 PM 42.4750 -81.4950 204° Southwest 404 465 36,000  Level FlightAware ADS-B
Tue 04:30:13 PM 42.4640 -81.5010 202° Southwest 404 465 36,000  Level FlightAware ADS-B
Tue 04:30:18 PM 42.4550 -81.5070 206° Southwest 403 464 36,000  Level FlightAware ADS-B
Tue 04:30:26 PM 42.4410 -81.5150 203° Southwest 403 464 36,000  Level FlightAware ADS-B
Tue 04:30:35 PM 42.4250 -81.5250 205° Southwest 403 464 36,000  Level FlightAware ADS-B
Tue 04:30:43 PM 42.4140 -81.5320 205° Southwest 402 463 36,000  Level FlightAware ADS-B
Tue 04:30:47 PM 42.4060 -81.5370 205° Southwest 402 463 36,000  Level FlightAware ADS-B
Tue 04:30:54 PM 42.3920 -81.5450 203° Southwest 402 463 36,000  Level FlightAware ADS-B
Tue 04:31:01 PM 42.3810 -81.5520 205° Southwest 401 461 36,000  Level FlightAware ADS-B
Tue 04:31:07 PM 42.3710 -81.5580 204° Southwest 400 460 36,000  Level FlightAware ADS-B
Tue 04:31:14 PM 42.3580 -81.5660 204° Southwest 398 458 36,000  Level FlightAware ADS-B
Tue 04:31:21 PM 42.3480 -81.5720 204° Southwest 397 457 36,000  Level FlightAware ADS-B
Tue 04:31:30 PM 42.3340 -81.5800 203° Southwest 397 457 36,000  Level FlightAware ADS-B
Tue 04:31:34 PM 42.3250 -81.5860 206° Southwest 397 457 36,000  Level FlightAware ADS-B
Tue 04:31:44 PM 42.3080 -81.5960 204° Southwest 397 457 36,000  Level FlightAware ADS-B
Tue 04:31:51 PM 42.2980 -81.6020 204° Southwest 397 457 36,000  Level FlightAware ADS-B
Tue 04:31:58 PM 42.2860 -81.6090 203° Southwest 397 457 36,000  Level FlightAware ADS-B
Tue 04:32:04 PM 42.2760 -81.6160 207° Southwest 397 457 36,000  Level FlightAware ADS-B
Tue 04:32:11 PM 42.2690 -81.6190 198° South 397 457 36,000  Level FlightAware ADS-B
Tue 04:32:19 PM 42.2510 -81.6300 204° Southwest 396 456 36,000  Level FlightAware ADS-B
Tue 04:32:28 PM 42.2370 -81.6390 205° Southwest 397 457 36,000  Level FlightAware ADS-B
Tue 04:32:30 PM 42.2330 -81.6420 209° Southwest 397 457 36,000  Level FlightAware ADS-B
Tue 04:32:40 PM 42.2180 -81.6510 204° Southwest 397 457 36,000  Level FlightAware ADS-B
Tue 04:32:46 PM 42.2060 -81.6580 203° Southwest 397 457 36,000  Level FlightAware ADS-B
Tue 04:32:56 PM 42.1890 -81.6680 204° Southwest 396 456 36,000  Level FlightAware ADS-B
Tue 04:33:00 PM 42.1830 -81.6720 206° Southwest 396 456 36,000  Level FlightAware ADS-B
Tue 04:33:07 PM 42.1700 -81.6800 205° Southwest 396 456 36,000  Level FlightAware ADS-B
Tue 04:33:14 PM 42.1590 -81.6860 202° Southwest 396 456 36,000  Level FlightAware ADS-B
Tue 04:33:21 PM 42.1460 -81.6940 205° Southwest 395 455 36,000  Level FlightAware ADS-B
Tue 04:33:30 PM 42.1320 -81.7020 203° Southwest 395 455 36,000  Level FlightAware ADS-B
Tue 04:33:37 PM 42.1200 -81.7090 203° Southwest 395 455 36,000  Level FlightAware ADS-B
Tue 04:33:42 PM 42.1140 -81.7130 206° Southwest 395 455 36,000  Level FlightAware ADS-B
Tue 04:33:48 PM 42.1020 -81.7200 203° Southwest 395 455 36,000  Level FlightAware ADS-B
Tue 04:34:03 PM 42.0770 -81.7360 205° Southwest 396 456 36,000  Level FlightAware ADS-B
Tue 04:34:09 PM 42.0670 -81.7420 204° Southwest 396 456 36,000  Level FlightAware ADS-B
Tue 04:34:19 PM 42.0540 -81.7500 205° Southwest 396 456 36,000  Level FlightAware ADS-B
Tue 04:34:23 PM 42.0450 -81.7550 202° Southwest 396 456 36,000  Level FlightAware ADS-B
Tue 04:34:27 PM 42.0390 -81.7590 206° Southwest 396 456 36,000  Level FlightAware ADS-B
Tue 04:34:35 PM 42.0250 -81.7670 203° Southwest 396 456 36,000  Level FlightAware ADS-B
Tue 04:34:45 PM 42.0050 -81.7790 204° Southwest 396 456 36,000  Level FlightAware ADS-B
Tue 04:35:05 PM 41.9740 -81.7970 203° Southwest 397 457 36,000  Level FlightAware ADS-B
Tue 04:35:23 PM 41.9420 -81.8170 205° Southwest 398 458 36,000  Level FlightAware ADS-B
Tue 04:36:13 PM 41.8570 -81.8670 204° Southwest 399 459 36,000  Level FlightAware ADS-B
Tue 04:36:30 PM 41.8280 -81.8840 204° Southwest 399 459 36,000  Level FlightAware ADS-B
Tue 04:37:23 PM 41.7390 -81.9370 204° Southwest 397 457 36,000  Level FlightAware ADS-B
Tue 04:38:01 PM 41.6780 -81.9730 204° Southwest 394 453 36,000  Level FlightAware ADS-B
Tue 04:38:23 PM 41.6390 -81.9970 205° Southwest 393 452 36,000  Level FlightAware ADS-B
Tue 04:39:08 PM 41.5650 -82.0400 204° Southwest 393 452 36,000  Level FlightAware ADS-B
Tue 04:43:33 PM 41.1050 -82.2530 199° South 400 460 36,000  Level FlightAware ADS-B
Tue 04:45:59 PM 40.8420 -82.3460 195° South 403 464 36,000  Level FlightAware ADS-B
Tue 04:46:35 PM 40.7770 -82.3690 195° South 403 464 36,000  Level FlightAware ADS-B
Tue 04:47:06 PM 40.7200 -82.3900 196° South 402 463 36,000  Level FlightAware ADS-B
Tue 04:48:26 PM 40.5770 -82.4400 195° South 400 460 36,000  Level FlightAware ADS-B
Tue 04:49:32 PM 40.4580 -82.4820 195° South 399 459 36,000  Level FlightAware ADS-B
Tue 04:51:39 PM 40.2350 -82.5600 195° South 391 450 36,000  Level FlightAware ADS-B
Tue 04:51:57 PM 40.2060 -82.5700 195° South 391 450 36,000  Level FlightAware ADS-B
Tue 04:56:23 PM 39.7110 -82.6180 184° South 403 464 36,000  Level FlightAware ADS-B
Tue 04:57:25 PM 39.5960 -82.6260 183° South 404 465 36,000  Level FlightAware ADS-B
Tue 05:00:21 PM 39.2650 -82.6480 183° South 405 466 36,000  Level FlightAware ADS-B
Tue 05:05:00 PM 38.7350 -82.6830 183° South 413 475 36,000  Level FlightAware ADS-B
Tue 05:09:39 PM 38.2040 -82.7180 183° South 414 476 36,000  Level FlightAware ADS-B
Tue 05:10:22 PM 38.1203 -82.7231 183° South 415 478 36,000  Level FlightAware ADS-B
Tue 05:10:27 PM 38.1100 -82.7238 183° South 414 476 36,000  Level FlightAware ADS-B
Tue 05:11:29 PM 37.9927 -82.7313 183° South 413 475 36,000  Level FlightAware ADS-B
Tue 05:11:37 PM 37.9776 -82.7322 183° South 413 475 36,000  Level FlightAware ADS-B
Tue 05:13:34 PM 37.7548 -82.7482 183° South 405 466 36,000  Level FlightAware ADS-B
Tue 05:15:36 PM 37.5481 -82.8369 199° South 385 443 36,000  Level FlightAware ADS-B
Tue 05:16:10 PM 37.4938 -82.8728 208° Southwest 386 444 36,000  Level FlightAware ADS-B
Tue 05:16:53 PM 37.4247 -82.9182 208° Southwest 387 445 36,000  Level FlightAware ADS-B
Tue 05:17:45 PM 37.3436 -82.9715 208° Southwest 386 444 36,000  Level FlightAware ADS-B
Tue 05:18:15 PM 37.2957 -83.0028 207° Southwest 385 443 36,000  Level FlightAware ADS-B
Tue 05:18:48 PM 37.2446 -83.0362 207° Southwest 384 442 36,000  Level FlightAware ADS-B
Tue 05:19:20 PM 37.1941 -83.0691 207° Southwest 381 438 36,000  Level FlightAware ADS-B
Tue 05:19:51 PM 37.1458 -83.1006 207° Southwest 379 436 36,000  Level FlightAware ADS-B
Tue 05:20:22 PM 37.0979 -83.1318 207° Southwest 377 434 36,000  Level FlightAware ADS-B
Tue 05:20:53 PM 37.0499 -83.1630 207° Southwest 374 430 36,000  Level FlightAware ADS-B
Tue 05:21:24 PM 37.0025 -83.1937 207° Southwest 373 429 36,000  Level FlightAware ADS-B
Tue 05:21:54 PM 36.9562 -83.2238 207° Southwest 373 429 36,000  Level FlightAware ADS-B
Tue 05:22:24 PM 36.9093 -83.2543 207° Southwest 375 432 36,000  Level FlightAware ADS-B
Tue 05:22:55 PM 36.8626 -83.2845 207° Southwest 376 433 36,000  Level FlightAware ADS-B
Tue 05:23:29 PM 36.8089 -83.3191 207° Southwest 375 432 36,000  Level FlightAware ADS-B
Tue 05:24:00 PM 36.7618 -83.3495 207° Southwest 373 429 36,000  Level FlightAware ADS-B
Tue 05:24:30 PM 36.7153 -83.3794 207° Southwest 372 428 36,000  Level FlightAware ADS-B
Tue 05:25:03 PM 36.6651 -83.4117 207° Southwest 368 423 36,000  Level FlightAware ADS-B
Tue 05:25:33 PM 36.6200 -83.4406 207° Southwest 367 422 36,000  Level FlightAware ADS-B
Tue 05:26:05 PM 36.5725 -83.4711 207° Southwest 366 421 36,000  Level FlightAware ADS-B
Tue 05:26:35 PM 36.5274 -83.5000 207° Southwest 365 420 36,000  Level FlightAware ADS-B
Tue 05:27:06 PM 36.4811 -83.5295 207° Southwest 367 422 36,000  Level FlightAware ADS-B
Tue 05:27:36 PM 36.4354 -83.5587 207° Southwest 368 423 36,000  Level FlightAware ADS-B
Tue 05:28:08 PM 36.3879 -83.5889 207° Southwest 368 423 36,000  Level FlightAware ADS-B
Tue 05:28:38 PM 36.3418 -83.6182 207° Southwest 367 422 36,000  Level FlightAware ADS-B
Tue 05:29:08 PM 36.2961 -83.6473 207° Southwest 367 422 36,000  Level FlightAware ADS-B
Tue 05:29:39 PM 36.2501 -83.6766 207° Southwest 368 423 36,000  Level FlightAware ADS-B
Tue 05:30:10 PM 36.2020 -83.7072 207° Southwest 368 423 36,000  Level FlightAware ADS-B
Tue 05:30:41 PM 36.1561 -83.7362 207° Southwest 369 425 36,000  Level FlightAware ADS-B
Tue 05:31:13 PM 36.1065 -83.7677 207° Southwest 370 426 36,000  Level FlightAware ADS-B
Tue 05:31:44 PM 36.0597 -83.7972 207° Southwest 370 426 36,000  Level FlightAware ADS-B
Tue 05:32:15 PM 36.0129 -83.8267 207° Southwest 369 425 36,000  Level FlightAware ADS-B
Tue 05:32:46 PM 35.9661 -83.8561 207° Southwest 371 427 36,000  Level FlightAware ADS-B
Tue 05:33:07 PM 35.9328 -83.8760 206° Southwest 373 429 36,000  Level FlightAware ADS-B
Tue 05:33:38 PM 35.8816 -83.8979 199° South 383 441 36,000  Level FlightAware ADS-B
Tue 05:34:08 PM 35.8285 -83.9122 192° South 390 449 36,000  Level FlightAware ADS-B
Tue 05:34:39 PM 35.7736 -83.9259 191° South 388 447 36,000  Level FlightAware ADS-B
Tue 05:35:10 PM 35.7204 -83.9393 192° South 388 447 36,000  Level FlightAware ADS-B
Tue 05:35:42 PM 35.6651 -83.9529 191° South 385 443 36,000  Level FlightAware ADS-B
Tue 05:36:13 PM 35.6101 -83.9663 191° South 382 440 36,000  Level FlightAware ADS-B
Tue 05:36:44 PM 35.5571 -83.9791 191° South 381 438 36,000  Level FlightAware ADS-B
Tue 05:37:14 PM 35.5055 -83.9916 191° South 374 430 36,000  Level FlightAware ADS-B
Tue 05:37:52 PM 35.4413 -84.0071 191° South 373 429 36,000  Level FlightAware ADS-B
Tue 05:38:25 PM 35.3850 -84.0207 191° South 376 433 36,000  Level FlightAware ADS-B
Tue 05:39:15 PM 35.2999 -84.0412 191° South 376 433 36,000  Level FlightAware ADS-B
Tue 05:39:46 PM 35.2476 -84.0538 191° South 375 432 36,000  Level FlightAware ADS-B
Tue 05:40:16 PM 35.1958 -84.0663 191° South 374 430 36,000  Level FlightAware ADS-B
Tue 05:40:51 PM 35.1365 -84.0805 191° South 375 432 36,000  Level FlightAware ADS-B
Tue 05:41:21 PM 35.0849 -84.0928 191° South 374 430 36,000  Level FlightAware ADS-B
Tue 05:41:52 PM 35.0325 -84.1053 191° South 373 429 36,000  Level FlightAware ADS-B
Tue 05:42:23 PM 34.9807 -84.1176 191° South 374 430 36,000  Level FlightAware ADS-B
Tue 05:42:54 PM 34.9281 -84.1302 191° South 375 432 36,000  Level FlightAware ADS-B
Tue 05:43:24 PM 34.8774 -84.1423 191° South 376 433 36,000  Level FlightAware ADS-B
Tue 05:43:55 PM 34.8239 -84.1550 191° South 378 435 36,000  Level FlightAware ADS-B
Tue 05:44:25 PM 34.7706 -84.1677 191° South 381 438 36,000  Level FlightAware ADS-B
Tue 05:44:56 PM 34.7173 -84.1804 191° South 383 441 36,000  Level FlightAware ADS-B
Tue 05:45:43 PM 34.6353 -84.1998 191° South 384 442 36,000  Level FlightAware ADS-B
Tue 05:46:14 PM 34.5820 -84.2124 191° South 385 443 36,000  Level FlightAware ADS-B
Tue 05:46:44 PM 34.5295 -84.2249 191° South 383 441 36,000  Level FlightAware ADS-B
Tue 05:47:14 PM 34.4769 -84.2373 191° South 382 440 36,000  Level FlightAware ADS-B
Tue 05:47:45 PM 34.4242 -84.2497 191° South 380 437 36,000  Level FlightAware ADS-B
Tue 05:48:15 PM 34.3718 -84.2620 191° South 380 437 36,000  Level FlightAware ADS-B
Tue 05:48:49 PM 34.3122 -84.2760 191° South 380 437 36,000 261 Level FlightAware ADS-B
Tue 05:49:24 PM 34.2521 -84.2901 191° South 380 437 36,300 522 Climbing FlightAware ADS-B
Tue 05:49:58 PM 34.1924 -84.3041 191° South 380 437 36,600 477 Climbing FlightAware ADS-B
Tue 05:50:52 PM 34.0969 -84.3264 191° South 394 453 37,000 276 Climbing FlightAware ADS-B
Tue 05:51:25 PM 34.0399 -84.3397 191° South 393 452 37,000  Level FlightAware ADS-B
Tue 05:51:58 PM 33.9782 -84.3540 191° South 390 449 37,000  Level FlightAware ADS-B
Tue 05:52:30 PM 33.9224 -84.3670 191° South 393 452 37,000  Level FlightAware ADS-B
Tue 05:53:03 PM 33.8623 -84.3811 191° South 395 455 37,000  Level FlightAware ADS-B
Tue 05:53:34 PM 33.8079 -84.3937 191° South 394 453 37,000  Level FlightAware ADS-B
Tue 05:54:05 PM 33.7536 -84.4063 191° South 394 453 37,000  Level FlightAware ADS-B
Tue 05:54:36 PM 33.6969 -84.4194 191° South 393 452 37,000  Level FlightAware ADS-B
Tue 05:54:57 PM 33.6590 -84.4279 191° South 396 456 37,000  Level FlightAware ADS-B
Tue 05:55:27 PM 33.6038 -84.4338 185° South 406 467 37,000  Level FlightAware ADS-B
Tue 05:55:58 PM 33.5435 -84.4329 179° South 413 475 37,000  Level FlightAware ADS-B
Tue 05:56:29 PM 33.4874 -84.4319 179° South 411 473 37,000  Level FlightAware ADS-B
Tue 05:57:42 PM 33.3458 -84.4293 179° South 410 472 37,000  Level FlightAware ADS-B
Tue 05:58:13 PM 33.2886 -84.4281 179° South 408 470 37,000  Level FlightAware ADS-B
Tue 05:59:20 PM 33.1626 -84.4255 179° South 406 467 37,000  Level FlightAware ADS-B
Tue 06:00:14 PM 33.0620 -84.4230 179° South 405 466 37,000  Level FlightAware ADS-B
Tue 06:00:53 PM 32.9900 -84.4220 179° South 406 467 37,000  Level FlightAware ADS-B
Tue 06:01:19 PM 32.9420 -84.4210 179° South 407 468 37,000  Level FlightAware ADS-B
Tue 06:01:50 PM 32.8850 -84.4200 179° South 407 468 37,000  Level FlightAware ADS-B
Tue 06:02:18 PM 32.8320 -84.4190 179° South 409 471 37,000  Level FlightAware ADS-B
Tue 06:03:29 PM 32.7060 -84.4160 179° South 410 472 37,000  Level FlightAware ADS-B
Tue 06:03:53 PM 32.6600 -84.4150 179° South 410 472 37,000  Level FlightAware ADS-B
Tue 06:04:46 PM 32.5710 -84.4140 179° South 411 473 37,000  Level FlightAware ADS-B
Tue 06:05:50 PM 32.4250 -84.4110 179° South 416 479 37,000  Level FlightAware ADS-B
Tue 06:06:27 PM 32.3520 -84.4090 179° South 417 480 37,000  Level FlightAware ADS-B
Tue 06:07:00 PM 32.2890 -84.4080 179° South 418 481 37,000  Level FlightAware ADS-B
Tue 06:07:43 PM 32.2070 -84.4060 179° South 418 481 37,000  Level FlightAware ADS-B
Tue 06:08:29 PM 32.1260 -84.4050 179° South 417 480 37,000  Level FlightAware ADS-B
Tue 06:09:08 PM 32.0420 -84.4030 179° South 416 479 37,000  Level FlightAware ADS-B
Tue 06:09:44 PM 31.9720 -84.4020 179° South 415 478 37,000  Level FlightAware ADS-B
Tue 06:10:15 PM 31.9160 -84.4010 179° South 415 478 37,000  Level FlightAware ADS-B
Tue 06:10:58 PM 31.8310 -84.3990 179° South 417 480 37,000  Level FlightAware ADS-B
Tue 06:12:17 PM 31.6760 -84.3960 179° South 417 480 37,000  Level FlightAware ADS-B
Tue 06:12:43 PM 31.6250 -84.3950 179° South 416 479 37,000  Level FlightAware ADS-B
Tue 06:13:29 PM 31.5380 -84.3930 179° South 416 479 37,000  Level FlightAware ADS-B
Tue 06:14:32 PM 31.4160 -84.3910 179° South 415 478 37,000  Level FlightAware ADS-B
Tue 06:15:02 PM 31.3580 -84.3900 179° South 415 478 37,000  Level FlightAware ADS-B
Tue 06:15:31 PM 31.3040 -84.3890 179° South 415 478 37,000  Level FlightAware ADS-B
Tue 06:16:07 PM 31.2350 -84.3860 178° South 419 482 37,000  Level FlightAware ADS-B
Tue 06:16:38 PM 31.1770 -84.3650 163° South 446 513 37,000  Level FlightAware ADS-B
Tue 06:17:32 PM 31.0750 -84.3070 154° Southeast 445 512 37,000  Level FlightAware ADS-B
Tue 06:18:16 PM 30.9930 -84.2640 156° South 440 506 37,000  Level FlightAware ADS-B
Tue 06:18:57 PM 30.9157 -84.2231 156° South 441 507 37,000  Level FlightAware ADS-B (KONZ)
Tue 06:19:39 PM 30.8374 -84.1818 156° South 444 511 37,000  Level FlightAware ADS-B (KONZ)
Tue 06:21:03 PM 30.6810 -84.0990 156° South 448 516 37,000  Level FlightAware ADS-B
Tue 06:21:43 PM 30.6050 -84.0590 156° South 446 513 37,000  Level FlightAware ADS-B
Tue 06:22:42 PM 30.4930 -84.0010 156° South 444 511 37,000  Level FlightAware ADS-B
Tue 06:23:06 PM 30.4480 -83.9770 155° Southeast 444 511 37,000  Level FlightAware ADS-B
Tue 06:24:03 PM 30.3420 -83.9220 156° South 444 511 37,000  Level FlightAware ADS-B
Tue 06:24:59 PM 30.2390 -83.8680 156° South 444 511 37,000  Level FlightAware ADS-B
Tue 06:25:28 PM 30.1814 -83.8381 156° South 444 511 37,000  Level FlightAware ADS-B (KONZ)
Tue 06:26:32 PM 30.0620 -83.7760 156° South 445 512 37,000  Level FlightAware ADS-B
Tue 06:27:16 PM 29.9790 -83.7330 156° South 446 513 37,000  Level FlightAware ADS-B
Tue 06:27:40 PM 29.9340 -83.7100 156° South 447 514 37,000  Level FlightAware ADS-B
Tue 06:28:34 PM 29.8300 -83.6560 156° South 447 514 37,000  Level FlightAware ADS-B
Tue 06:29:21 PM 29.7420 -83.6110 156° South 446 513 37,000  Level FlightAware ADS-B
Tue 06:29:45 PM 29.6970 -83.5870 155° Southeast 443 510 37,000  Level FlightAware ADS-B
Tue 06:30:42 PM 29.5910 -83.5330 156° South 440 506 37,000  Level FlightAware ADS-B
Tue 06:31:36 PM 29.4900 -83.4810 156° South 438 504 37,000  Level FlightAware ADS-B
Tue 06:32:30 PM 29.3910 -83.4300 156° South 438 504 37,000  Level FlightAware ADS-B
Tue 06:33:09 PM 29.3190 -83.3940 156° South 439 505 37,000  Level FlightAware ADS-B
Tue 06:33:56 PM 29.2320 -83.3490 156° South 441 507 37,000  Level FlightAware ADS-B
Tue 06:34:37 PM 29.1540 -83.3100 156° South 441 507 37,000  Level FlightAware ADS-B
Tue 06:35:19 PM 29.0770 -83.2700 156° South 442 509 37,000  Level FlightAware ADS-B
Tue 06:35:47 PM 29.0230 -83.2430 156° South 443 510 37,000  Level FlightAware ADS-B
Tue 06:36:35 PM 28.9340 -83.1980 156° South 442 509 37,000  Level FlightAware ADS-B
Tue 06:37:18 PM 28.8530 -83.1570 156° South 442 509 37,000  Level FlightAware ADS-B
Tue 06:38:14 PM 28.7470 -83.1040 156° South 440 506 37,000  Level FlightAware ADS-B
Tue 06:39:08 PM 28.6472 -83.0534 156° South 443 510 37,000  Level FlightAware ADS-B
Tue 06:39:45 PM 28.5770 -83.0180 156° South 444 511 37,000  Level FlightAware ADS-B
Tue 06:40:26 PM 28.5000 -82.9790 156° South 445 512 37,000  Level FlightAware ADS-B
Tue 06:40:55 PM 28.4470 -82.9530 157° South 445 512 37,000  Level FlightAware ADS-B
Tue 06:41:55 PM 28.3320 -82.8960 156° South 445 512 37,000  Level FlightAware ADS-B
Tue 06:42:51 PM 28.2270 -82.8430 156° South 445 512 37,000  Level FlightAware ADS-B
Tue 06:43:39 PM 28.1360 -82.7980 156° South 448 516 37,000  Level FlightAware ADS-B
Tue 06:44:28 PM 28.0410 -82.7500 156° South 450 518 37,000  Level FlightAware ADS-B
Tue 06:45:11 PM 27.9620 -82.7110 156° South 451 519 37,000  Level FlightAware ADS-B
Tue 06:45:43 PM 27.9000 -82.6790 155° Southeast 453 521 37,000  Level FlightAware ADS-B
Tue 06:46:22 PM 27.8278 -82.6314 150° Southeast 459 528 37,000  Level FlightAware ADS-B
Tue 06:46:53 PM 27.7715 -82.5932 149° Southeast 458 527 37,000  Level FlightAware ADS-B
Tue 06:47:43 PM 27.6848 -82.5354 149° Southeast 459 528 37,000  Level FlightAware ADS-B
Tue 06:48:34 PM 27.5923 -82.4738 149° Southeast 460 529 37,000  Level FlightAware ADS-B
Tue 06:49:04 PM 27.5308 -82.4331 150° Southeast 461 531 37,000  Level FlightAware ADS-B
Tue 06:49:35 PM 27.4794 -82.3990 150° Southeast 462 532 37,000  Level FlightAware ADS-B
Tue 06:50:15 PM 27.4012 -82.3474 150° Southeast 464 534 37,000  Level FlightAware ADS-B
Tue 06:50:46 PM 27.3431 -82.3089 149° Southeast 465 535 37,000  Level FlightAware ADS-B
Tue 06:51:27 PM 27.2658 -82.2577 149° Southeast 467 537 37,000  Level FlightAware ADS-B
Tue 06:52:01 PM 27.2030 -82.2162 150° Southeast 467 537 37,000  Level FlightAware ADS-B
Tue 06:52:36 PM 27.1396 -82.1744 150° Southeast 465 535 37,000  Level FlightAware ADS-B
Tue 06:53:08 PM 27.0790 -82.1340 149° Southeast 464 534 37,000  Level FlightAware ADS-B
Tue 06:53:54 PM 26.9940 -82.0790 150° Southeast 463 533 37,000  Level FlightAware ADS-B
Tue 06:54:18 PM 26.9565 -82.0541 149° Southeast 464 534 37,000  Level FlightAware ADS-B
Tue 06:54:49 PM 26.8914 -82.0115 150° Southeast 466 536 37,000  Level FlightAware ADS-B
Tue 06:55:27 PM 26.8300 -81.9713 150° Southeast 465 535 37,000  Level FlightAware ADS-B
Tue 06:56:29 PM 26.7065 -81.8905 150° Southeast 461 531 37,000  Level FlightAware ADS-B
Tue 06:57:34 PM 26.5880 -81.8210 152° Southeast 446 513 37,000  Level FlightAware ADS-B
Tue 06:58:02 PM 26.5260 -81.8080 169° South 448 516 37,000  Level FlightAware ADS-B
Tue 06:58:55 PM 26.4191 -81.7827 168° South 451 519 37,000  Level FlightAware ADS-B
Tue 06:59:37 PM 26.3379 -81.7633 168° South 452 520 37,000  Level FlightAware ADS-B
Tue 07:01:06 PM 26.1511 -81.7188 168° South 451 519 37,000  Level FlightAware ADS-B
Tue 07:01:44 PM 26.0770 -81.7010 168° South 443 510 37,000  Level FlightAware ADS-B
Tue 07:02:30 PM 25.9830 -81.6790 168° South 444 511 37,000  Level FlightAware ADS-B
Tue 07:05:00 PM 25.7058 -81.7481 161° South  Level Estimated
Tue 07:06:00 PM 25.6110 -81.6787 147° Southeast  Level FlightAware Approximate
Tue 07:07:00 PM 25.5162 -81.6093 147° Southeast  Level FlightAware Approximate
Tue 07:08:00 PM 25.4213 -81.5401 147° Southeast  Level FlightAware Approximate
Tue 07:09:00 PM 25.3263 -81.4709 147° Southeast  Level FlightAware Approximate
Tue 07:10:00 PM 25.2314 -81.4019 147° Southeast  Level FlightAware Approximate
Tue 07:11:00 PM 25.1364 -81.3330 147° Southeast  Level FlightAware Approximate
Tue 07:12:00 PM 25.0414 -81.2642 147° Southeast  Level FlightAware Approximate
Tue 07:13:00 PM 24.9464 -81.1955 147° Southeast  Level FlightAware Approximate
Tue 07:14:00 PM 24.8477 -81.2577 165° South  Level Estimated
Tue 07:15:00 PM 24.7491 -81.3198 189° South  Level Estimated
Tue 07:16:00 PM 24.6578 -81.2452 143° Southeast  Level FlightAware Approximate
Tue 07:17:00 PM 24.5623 -81.3129 200° South  Level Estimated
Tue 07:18:00 PM 24.4667 -81.3804 180° South  Level Estimated
Tue 07:19:00 PM 24.3711 -81.4478 187° South  Level Estimated
Tue 07:20:00 PM 24.2862 -81.3649 138° Southeast  Level FlightAware Approximate
Tue 07:21:00 PM 24.1950 -81.4392 205° Southwest  Level Estimated
Tue 07:22:00 PM 24.1038 -81.5134 225° Southwest  Level Estimated
Tue 07:23:00 PM 24.0125 -81.5875 225° Southwest  Level Estimated
Tue 07:24:00 PM 23.9037 -81.6233 197° South  Level FlightAware Approximate
Tue 07:25:00 PM 23.7948 -81.6590 197° South  Level FlightAware Approximate
Tue 07:26:00 PM 23.6860 -81.6946 197° South  Level FlightAware Approximate
Tue 07:27:00 PM 23.5771 -81.7302 197° South  Level FlightAware Approximate
Tue 07:28:00 PM 23.4993 -81.8206 231° Southwest  Level Estimated
Tue 07:29:00 PM 23.4215 -81.9108 228° Southwest  Level Estimated
Tue 07:30:00 PM 23.3381 -81.9949 223° Southwest  Level FlightAware Approximate
Tue 07:31:00 PM 23.2614 -82.0862 226° Southwest  Level Estimated
Tue 07:32:00 PM 23.1847 -82.1774 212° Southwest  Level Estimated
Tue 07:33:00 PM 23.1079 -82.2685 231° Southwest  Level Estimated
Tue 07:34:00 PM 23.0311 -82.3595 223° Southwest  Level Estimated
Tue 07:35:00 PM 22.9891 -82.4091 223° Southwest  Level Estimated
Tue 07:36:00 PM 22.9891 -82.4091 223° Southwest  Level Estimated
Tue 07:37:00 PM 22.9891 -82.4091 223° Southwest  Level Estimated
Tue 07:38:00 PM 22.9891 -82.4091 223° Southwest  Level Estimated
Tue 07:39:00 PM 22.9891 -82.4091 223° Southwest  Level Estimated
Tue 07:40:00 PM 22.9891 -82.4091 223° Southwest  Level Estimated
Tue 07:41:00 PM 22.9891 -82.4091 223° Southwest  Level Estimated
Tue 07:42:00 PM 22.9891 -82.4091 223° Southwest  Level Estimated
Tue 07:43:00 PM 22.9891 -82.4091 223° Southwest  Level Estimated
Tue 07:44:00 PM 22.9891 -82.4091 223° Southwest  Level Estimated
Tue 07:45:00 PM 22.9891 -82.4091 223° Southwest  Level Estimated
Tue 07:46:00 PM 22.9891 -82.4091 223° Southwest  Level Estimated
Tue 07:47:00 PM 22.9891 -82.4091 223° Southwest  Level Estimated
Tue 07:48:00 PM 22.9891 -82.4091 223° Southwest  Level Estimated
Tue 07:49:00 PM 22.9891 -82.4091 223° Southwest  Level Estimated
Tue 07:50:00 PM 22.9891 -82.4091 223° Southwest  Level Estimated
Tue 07:51:00 PM 22.9891 -82.4091 223° Southwest  Level Estimated
Tue 07:52:00 PM 22.9891 -82.4091 223° Southwest  Level Estimated
Tue 07:53:00 PM 22.9891 -82.4091 223° Southwest  Level Estimated
Tue 07:54:00 PM 22.9891 -82.4091 223° Southwest  Level Estimated
Tue 07:55:00 PM 22.9891 -82.4091 223° Southwest  Level Estimated

Login

Don't have an account? Register now (free) for customized features, flight alerts, and more!